
Distance (Route):
Temperature : 17.4°C
Humidity : 0%
Pressure : 0hPa| Receiver | Frames | First received | Last received |
|---|---|---|---|
| ARGUS2 | 457 | 2026-09-04 11:28:16 | 2026-09-04 14:29:59 |
| Receiver | Date | Latitude | Longitude | Direction | Speed | Altitude | Climb | Temperature | Humidity | Pressure | Voltage | Killtimer | Uptime | BKT | XDATA |
|---|---|---|---|---|---|---|---|---|---|---|---|---|---|---|---|
| ARGUS2 | 2026-09-04 14:29:59 | 28.09110 | -83.22986 | 29° | 13km/h | 1980m | -3.0m/s | 17.4°C | 0% | 0hPa | 0V | 00:00:00 | 00:00:00 | 00:00:00 | |
| ARGUS2 | 2026-09-04 14:29:29 | 28.08998 | -83.23067 | 42° | 24km/h | 2073m | -2.9m/s | 16.6°C | 0% | 0hPa | 0V | 00:00:00 | 00:00:00 | 00:00:00 | |
| ARGUS2 | 2026-09-04 14:29:06 | 28.08902 | -83.23139 | 30° | 26km/h | 2143m | -3.1m/s | 16.1°C | 0% | 0hPa | 0V | 00:00:00 | 00:00:00 | 00:00:00 | |
| ARGUS2 | 2026-09-04 14:28:41 | 28.08781 | -83.23197 | 19° | 15km/h | 2220m | -3.2m/s | 15.7°C | 0% | 0hPa | 0V | 00:00:00 | 00:00:00 | 00:00:00 | |
| ARGUS2 | 2026-09-04 14:28:21 | 28.08695 | -83.23244 | 43° | 18km/h | 2287m | -3.1m/s | 15.3°C | 0% | 0hPa | 0V | 00:00:00 | 00:00:00 | 00:00:00 | |
| ARGUS2 | 2026-09-04 14:16:04 | 28.05767 | -83.24591 | 31° | 20km/h | 4324m | -2.4m/s | 3.6°C | 0% | 0hPa | 0V | 00:00:00 | 00:00:00 | 00:00:00 | |
| ARGUS2 | 2026-09-04 14:15:43 | 28.05653 | -83.24620 | 7° | 26km/h | 4373m | -2.2m/s | 3.3°C | 0% | 0hPa | 0V | 00:00:00 | 00:00:00 | 00:00:00 | |
| ARGUS2 | 2026-09-04 14:15:21 | 28.05551 | -83.24642 | 13° | 27km/h | 4419m | -2.2m/s | 3.3°C | 0% | 0hPa | 0V | 00:00:00 | 00:00:00 | 00:00:00 | |
| ARGUS2 | 2026-09-04 14:15:01 | 28.05464 | -83.24662 | 30° | 20km/h | 4464m | -2.3m/s | 3.3°C | 0% | 0hPa | 0V | 00:00:00 | 00:00:00 | 00:00:00 | |
| ARGUS2 | 2026-09-04 14:14:40 | 28.05357 | -83.24680 | 27° | 16km/h | 4518m | -2.5m/s | 3.0°C | 0% | 0hPa | 0V | 00:00:00 | 00:00:00 | 00:00:00 | |
| ARGUS2 | 2026-09-04 14:14:19 | 28.05245 | -83.24703 | 23° | 16km/h | 4571m | -2.5m/s | 2.7°C | 0% | 0hPa | 0V | 00:00:00 | 00:00:00 | 00:00:00 | |
| ARGUS2 | 2026-09-04 14:13:59 | 28.05129 | -83.24726 | 26° | 16km/h | 4624m | -2.5m/s | 2.2°C | 0% | 0hPa | 0V | 00:00:00 | 00:00:00 | 00:00:00 | |
| ARGUS2 | 2026-09-04 14:13:34 | 28.04977 | -83.24756 | 357° | 27km/h | 4688m | -2.8m/s | 1.5°C | 0% | 0hPa | 0V | 00:00:00 | 00:00:00 | 00:00:00 | |
| ARGUS2 | 2026-09-04 14:13:13 | 28.04872 | -83.24774 | 6° | 29km/h | 4741m | -2.7m/s | 1.3°C | 0% | 0hPa | 0V | 00:00:00 | 00:00:00 | 00:00:00 | |
| ARGUS2 | 2026-09-04 14:12:53 | 28.04755 | -83.24796 | 8° | 16km/h | 4797m | -2.5m/s | 0.8°C | 0% | 0hPa | 0V | 00:00:00 | 00:00:00 | 00:00:00 | |
| ARGUS2 | 2026-09-04 14:12:31 | 28.04642 | -83.24834 | 24° | 16km/h | 4855m | -2.8m/s | 0.4°C | 0% | 0hPa | 0V | 00:00:00 | 00:00:00 | 00:00:00 | |
| ARGUS2 | 2026-09-04 14:12:10 | 28.04529 | -83.24877 | 32° | 16km/h | 4912m | -3.0m/s | 0.0°C | 0% | 0hPa | 0V | 00:00:00 | 00:00:00 | 00:00:00 | |
| ARGUS2 | 2026-09-04 14:11:50 | 28.04418 | -83.24913 | 28° | 16km/h | 4971m | -2.8m/s | -0.2°C | 0% | 0hPa | 0V | 00:00:00 | 00:00:00 | 00:00:00 | |
| ARGUS2 | 2026-09-04 14:11:24 | 28.04282 | -83.24962 | 20° | 29km/h | 5043m | -2.7m/s | -0.8°C | 0% | 0hPa | 0V | 00:00:00 | 00:00:00 | 00:00:00 | |
| ARGUS2 | 2026-09-04 14:11:04 | 28.04167 | -83.24992 | 8° | 27km/h | 5098m | -2.7m/s | -1.1°C | 0% | 0hPa | 0V | 00:00:00 | 00:00:00 | 00:00:00 | |
| ARGUS2 | 2026-09-04 14:10:42 | 28.04047 | -83.25016 | 2° | 27km/h | 5159m | -2.6m/s | -1.5°C | 0% | 0hPa | 0V | 00:00:00 | 00:00:00 | 00:00:00 | |
| ARGUS2 | 2026-09-04 14:09:04 | 28.03547 | -83.25157 | 28° | 31km/h | 5450m | -3.0m/s | -3.6°C | 0% | 0hPa | 0V | 00:00:00 | 00:00:00 | 00:00:00 | |
| ARGUS2 | 2026-09-04 14:08:41 | 28.03407 | -83.25207 | 12° | 15km/h | 5518m | -3.1m/s | -3.9°C | 0% | 0hPa | 0V | 00:00:00 | 00:00:00 | 00:00:00 | |
| ARGUS2 | 2026-09-04 14:08:20 | 28.03314 | -83.25245 | 38° | 18km/h | 5576m | -2.9m/s | -4.3°C | 0% | 0hPa | 0V | 00:00:00 | 00:00:00 | 00:00:00 | |
| ARGUS2 | 2026-09-04 14:07:59 | 28.03215 | -83.25283 | 24° | 26km/h | 5640m | -2.8m/s | -4.7°C | 0% | 0hPa | 0V | 00:00:00 | 00:00:00 | 00:00:00 | |
| ARGUS2 | 2026-09-04 14:07:39 | 28.03116 | -83.25317 | 13° | 27km/h | 5699m | -2.6m/s | -5.0°C | 0% | 0hPa | 0V | 00:00:00 | 00:00:00 | 00:00:00 | |
| ARGUS2 | 2026-09-04 14:07:19 | 28.03013 | -83.25336 | 3° | 15km/h | 5757m | -2.6m/s | -5.2°C | 0% | 0hPa | 0V | 00:00:00 | 00:00:00 | 00:00:00 | |
| ARGUS2 | 2026-09-04 14:06:58 | 28.02924 | -83.25368 | 43° | 20km/h | 5810m | -2.5m/s | -5.8°C | 0% | 0hPa | 0V | 00:00:00 | 00:00:00 | 00:00:00 | |
| ARGUS2 | 2026-09-04 14:06:36 | 28.02815 | -83.25421 | 7° | 26km/h | 5865m | -2.3m/s | -6.2°C | 0% | 0hPa | 0V | 00:00:00 | 00:00:00 | 00:00:00 | |
| ARGUS2 | 2026-09-04 14:06:14 | 28.02720 | -83.25455 | 46° | 13km/h | 5915m | -2.4m/s | -6.7°C | 0% | 0hPa | 0V | 00:00:00 | 00:00:00 | 00:00:00 | |
| ARGUS2 | 2026-09-04 14:05:53 | 28.02629 | -83.25506 | 34° | 24km/h | 5970m | -2.4m/s | -6.9°C | 0% | 0hPa | 0V | 00:00:00 | 00:00:00 | 00:00:00 | |
| ARGUS2 | 2026-09-04 14:05:32 | 28.02496 | -83.25541 | 358° | 33km/h | 6021m | -2.6m/s | -6.5°C | 0% | 0hPa | 0V | 00:00:00 | 00:00:00 | 00:00:00 | |
| ARGUS2 | 2026-09-04 14:05:12 | 28.02347 | -83.25550 | 358° | 22km/h | 6079m | -2.4m/s | -6.4°C | 0% | 0hPa | 0V | 00:00:00 | 00:00:00 | 00:00:00 | |
| ARGUS2 | 2026-09-04 14:04:51 | 28.02202 | -83.25579 | 17° | 37km/h | 6141m | -3.0m/s | -6.9°C | 0% | 0hPa | 0V | 00:00:00 | 00:00:00 | 00:00:00 | |
| ARGUS2 | 2026-09-04 14:04:31 | 28.02045 | -83.25600 | 357° | 33km/h | 6206m | -3.0m/s | -7.2°C | 0% | 0hPa | 0V | 00:00:00 | 00:00:00 | 00:00:00 | |
| ARGUS2 | 2026-09-04 14:04:10 | 28.01910 | -83.25606 | 348° | 26km/h | 6266m | -2.8m/s | -7.5°C | 0% | 0hPa | 0V | 00:00:00 | 00:00:00 | 00:00:00 | |
| ARGUS2 | 2026-09-04 14:03:40 | 28.01718 | -83.25623 | 350° | 29km/h | 6352m | -2.2m/s | -8.3°C | 0% | 0hPa | 0V | 00:00:00 | 00:00:00 | 00:00:00 | |
| ARGUS2 | 2026-09-04 14:03:20 | 28.01589 | -83.25629 | 23° | 20km/h | 6407m | -2.3m/s | -8.8°C | 0% | 0hPa | 0V | 00:00:00 | 00:00:00 | 00:00:00 | |
| ARGUS2 | 2026-09-04 14:02:59 | 28.01471 | -83.25643 | 25° | 20km/h | 6454m | -1.9m/s | -9.2°C | 0% | 0hPa | 0V | 00:00:00 | 00:00:00 | 00:00:00 | |
| ARGUS2 | 2026-09-04 14:02:39 | 28.01349 | -83.25664 | 22° | 27km/h | 6503m | -2.5m/s | -9.6°C | 0% | 0hPa | 0V | 00:00:00 | 00:00:00 | 00:00:00 | |
| ARGUS2 | 2026-09-04 14:02:17 | 28.01216 | -83.25661 | 345° | 31km/h | 6557m | -2.8m/s | -9.9°C | 0% | 0hPa | 0V | 00:00:00 | 00:00:00 | 00:00:00 | |
| ARGUS2 | 2026-09-04 14:01:56 | 28.01095 | -83.25604 | 319° | 24km/h | 6628m | -3.5m/s | -9.9°C | 0% | 0hPa | 0V | 00:00:00 | 00:00:00 | 00:00:00 | |
| ARGUS2 | 2026-09-04 14:01:35 | 28.00999 | -83.25548 | 331° | 13km/h | 6693m | -3.5m/s | -10.1°C | 0% | 0hPa | 0V | 00:00:00 | 00:00:00 | 00:00:00 | |
| ARGUS2 | 2026-09-04 14:01:15 | 28.00905 | -83.25484 | 348° | 18km/h | 6766m | -4.2m/s | -10.4°C | 0% | 0hPa | 0V | 00:00:00 | 00:00:00 | 00:00:00 | |
| ARGUS2 | 2026-09-04 14:00:53 | 28.00798 | -83.25412 | 334° | 31km/h | 6848m | -3.9m/s | -11.1°C | 0% | 0hPa | 0V | 00:00:00 | 00:00:00 | 00:00:00 | |
| ARGUS2 | 2026-09-04 14:00:33 | 28.00693 | -83.25314 | 312° | 33km/h | 6925m | -3.7m/s | -11.6°C | 0% | 0hPa | 0V | 00:00:00 | 00:00:00 | 00:00:00 | |
| ARGUS2 | 2026-09-04 14:00:12 | 28.00595 | -83.25207 | 314° | 18km/h | 7003m | -3.4m/s | -12.1°C | 0% | 0hPa | 0V | 00:00:00 | 00:00:00 | 00:00:00 | |
| ARGUS2 | 2026-09-04 13:59:52 | 28.00507 | -83.25115 | 337° | 22km/h | 7077m | -3.6m/s | -12.5°C | 0% | 0hPa | 0V | 00:00:00 | 00:00:00 | 00:00:00 | |
| ARGUS2 | 2026-09-04 13:59:11 | 28.00303 | -83.24887 | 299° | 27km/h | 7219m | -3.2m/s | -13.5°C | 0% | 0hPa | 0V | 00:00:00 | 00:00:00 | 00:00:00 | |
| ARGUS2 | 2026-09-04 13:58:51 | 28.00196 | -83.24760 | 302° | 27km/h | 7294m | -3.5m/s | -14.0°C | 0% | 0hPa | 0V | 00:00:00 | 00:00:00 | 00:00:00 | |
| ARGUS2 | 2026-09-04 13:58:30 | 28.00086 | -83.24670 | 316° | 37km/h | 7359m | -3.3m/s | -14.4°C | 0% | 0hPa | 0V | 00:00:00 | 00:00:00 | 00:00:00 | |
| ARGUS2 | 2026-09-04 13:58:10 | 27.99971 | -83.24551 | 303° | 29km/h | 7426m | -2.9m/s | -15.0°C | 0% | 0hPa | 0V | 00:00:00 | 00:00:00 | 00:00:00 | |
| ARGUS2 | 2026-09-04 13:57:48 | 27.99849 | -83.24444 | 314° | 22km/h | 7498m | -4.6m/s | -15.6°C | 0% | 0hPa | 0V | 00:00:00 | 00:00:00 | 00:00:00 | |
| ARGUS2 | 2026-09-04 13:57:28 | 27.99717 | -83.24376 | 321° | 31km/h | 7585m | -3.8m/s | -16.4°C | 0% | 0hPa | 0V | 00:00:00 | 00:00:00 | 00:00:00 | |
| ARGUS2 | 2026-09-04 13:57:07 | 27.99605 | -83.24307 | 333° | 18km/h | 7660m | -4.4m/s | -17.0°C | 0% | 0hPa | 0V | 00:00:00 | 00:00:00 | 00:00:00 | |
| ARGUS2 | 2026-09-04 13:56:46 | 27.99462 | -83.24237 | 330° | 24km/h | 7735m | -3.5m/s | -17.3°C | 0% | 0hPa | 0V | 00:00:00 | 00:00:00 | 00:00:00 | |
| ARGUS2 | 2026-09-04 13:56:25 | 27.99297 | -83.24164 | 326° | 38km/h | 7799m | -2.5m/s | -17.1°C | 0% | 0hPa | 0V | 00:00:00 | 00:00:00 | 00:00:00 | |
| ARGUS2 | 2026-09-04 13:56:05 | 27.99102 | -83.24074 | 337° | 31km/h | 7847m | -2.1m/s | -16.9°C | 0% | 0hPa | 0V | 00:00:00 | 00:00:00 | 00:00:00 | |
| ARGUS2 | 2026-09-04 13:55:44 | 27.98916 | -83.23985 | 346° | 44km/h | 7895m | -2.4m/s | -17.1°C | 0% | 0hPa | 0V | 00:00:00 | 00:00:00 | 00:00:00 | |
| ARGUS2 | 2026-09-04 13:55:24 | 27.98712 | -83.23866 | 332° | 51km/h | 7954m | -3.0m/s | -17.4°C | 0% | 0hPa | 0V | 00:00:00 | 00:00:00 | 00:00:00 | |
| ARGUS2 | 2026-09-04 13:55:03 | 27.98518 | -83.23753 | 327° | 51km/h | 8021m | -3.1m/s | -17.7°C | 0% | 0hPa | 0V | 00:00:00 | 00:00:00 | 00:00:00 | |
| ARGUS2 | 2026-09-04 13:54:43 | 27.98299 | -83.23630 | 336° | 38km/h | 8090m | -3.6m/s | -18.0°C | 0% | 0hPa | 0V | 00:00:00 | 00:00:00 | 00:00:00 | |
| ARGUS2 | 2026-09-04 13:54:21 | 27.98061 | -83.23506 | 332° | 57km/h | 8166m | -3.6m/s | -18.8°C | 0% | 0hPa | 0V | 00:00:00 | 00:00:00 | 00:00:00 | |
| ARGUS2 | 2026-09-04 13:54:00 | 27.97849 | -83.23347 | 326° | 40km/h | 8237m | -2.8m/s | -19.1°C | 0% | 0hPa | 0V | 00:00:00 | 00:00:00 | 00:00:00 | |
| ARGUS2 | 2026-09-04 13:53:40 | 27.97611 | -83.23194 | 322° | 46km/h | 8298m | -2.4m/s | -19.6°C | 0% | 0hPa | 0V | 00:00:00 | 00:00:00 | 00:00:00 | |
| ARGUS2 | 2026-09-04 13:53:19 | 27.97381 | -83.23051 | 323° | 53km/h | 8349m | -2.5m/s | -20.1°C | 0% | 0hPa | 0V | 00:00:00 | 00:00:00 | 00:00:00 | |
| ARGUS2 | 2026-09-04 13:52:58 | 27.97190 | -83.22874 | 327° | 38km/h | 8404m | -2.8m/s | -20.0°C | 0% | 0hPa | 0V | 00:00:00 | 00:00:00 | 00:00:00 | |
| ARGUS2 | 2026-09-04 13:52:34 | 27.96947 | -83.22729 | 322° | 42km/h | 8467m | -2.0m/s | -20.9°C | 0% | 0hPa | 0V | 00:00:00 | 00:00:00 | 00:00:00 | |
| ARGUS2 | 2026-09-04 13:52:13 | 27.96735 | -83.22628 | 333° | 33km/h | 8508m | -1.5m/s | -20.3°C | 0% | 0hPa | 0V | 00:00:00 | 00:00:00 | 00:00:00 | |
| ARGUS2 | 2026-09-04 13:51:53 | 27.96540 | -83.22507 | 337° | 53km/h | 8549m | -2.2m/s | -20.7°C | 0% | 0hPa | 0V | 00:00:00 | 00:00:00 | 00:00:00 | |
| ARGUS2 | 2026-09-04 13:51:32 | 27.96336 | -83.22418 | 353° | 38km/h | 8609m | -2.5m/s | -21.2°C | 0% | 0hPa | 0V | 00:00:00 | 00:00:00 | 00:00:00 | |
| ARGUS2 | 2026-09-04 13:51:12 | 27.96147 | -83.22320 | 336° | 51km/h | 8671m | -2.9m/s | -21.5°C | 0% | 0hPa | 0V | 00:00:00 | 00:00:00 | 00:00:00 | |
| ARGUS2 | 2026-09-04 13:50:51 | 27.95954 | -83.22236 | 343° | 29km/h | 8733m | -2.7m/s | -22.3°C | 0% | 0hPa | 0V | 00:00:00 | 00:00:00 | 00:00:00 | |
| ARGUS2 | 2026-09-04 13:50:31 | 27.95767 | -83.22120 | 337° | 49km/h | 8793m | -2.9m/s | -22.1°C | 0% | 0hPa | 0V | 00:00:00 | 00:00:00 | 00:00:00 | |
| ARGUS2 | 2026-09-04 13:50:10 | 27.95608 | -83.22010 | 314° | 29km/h | 8850m | -2.7m/s | -22.2°C | 0% | 0hPa | 0V | 00:00:00 | 00:00:00 | 00:00:00 | |
| ARGUS2 | 2026-09-04 13:49:50 | 27.95437 | -83.21870 | 339° | 46km/h | 8912m | -3.1m/s | -22.8°C | 0% | 0hPa | 0V | 00:00:00 | 00:00:00 | 00:00:00 | |
| ARGUS2 | 2026-09-04 13:49:28 | 27.95270 | -83.21763 | 313° | 35km/h | 8978m | -3.1m/s | -23.4°C | 0% | 0hPa | 0V | 00:00:00 | 00:00:00 | 00:00:00 | |
| ARGUS2 | 2026-09-04 13:49:08 | 27.95099 | -83.21643 | 343° | 44km/h | 9043m | -3.3m/s | -23.8°C | 0% | 0hPa | 0V | 00:00:00 | 00:00:00 | 00:00:00 | |
| ARGUS2 | 2026-09-04 13:48:47 | 27.94938 | -83.21529 | 314° | 44km/h | 9113m | -3.5m/s | -24.5°C | 0% | 0hPa | 0V | 00:00:00 | 00:00:00 | 00:00:00 | |
| ARGUS2 | 2026-09-04 13:48:27 | 27.94774 | -83.21410 | 339° | 29km/h | 9181m | -3.6m/s | -25.0°C | 0% | 0hPa | 0V | 00:00:00 | 00:00:00 | 00:00:00 | |
| ARGUS2 | 2026-09-04 13:48:06 | 27.94633 | -83.21275 | 324° | 46km/h | 9255m | -3.5m/s | -25.7°C | 0% | 0hPa | 0V | 00:00:00 | 00:00:00 | 00:00:00 | |
| ARGUS2 | 2026-09-04 13:47:46 | 27.94496 | -83.21159 | 306° | 24km/h | 9327m | -3.7m/s | -26.1°C | 0% | 0hPa | 0V | 00:00:00 | 00:00:00 | 00:00:00 | |
| ARGUS2 | 2026-09-04 13:47:26 | 27.94350 | -83.21032 | 345° | 37km/h | 9403m | -4.0m/s | -26.7°C | 0% | 0hPa | 0V | 00:00:00 | 00:00:00 | 00:00:00 | |
| ARGUS2 | 2026-09-04 13:47:05 | 27.94214 | -83.20936 | 309° | 33km/h | 9480m | -3.9m/s | -27.4°C | 0% | 0hPa | 0V | 00:00:00 | 00:00:00 | 00:00:00 | |
| ARGUS2 | 2026-09-04 13:46:45 | 27.94058 | -83.20825 | 349° | 29km/h | 9561m | -3.9m/s | -28.0°C | 0% | 0hPa | 0V | 00:00:00 | 00:00:00 | 00:00:00 | |
| ARGUS2 | 2026-09-04 13:46:24 | 27.93932 | -83.20722 | 317° | 42km/h | 9638m | -3.9m/s | -28.7°C | 0% | 0hPa | 0V | 00:00:00 | 00:00:00 | 00:00:00 | |
| ARGUS2 | 2026-09-04 13:46:04 | 27.93788 | -83.20617 | 308° | 22km/h | 9722m | -4.1m/s | -28.9°C | 0% | 0hPa | 0V | 00:00:00 | 00:00:00 | 00:00:00 | |
| ARGUS2 | 2026-09-04 13:45:43 | 27.93657 | -83.20479 | 333° | 44km/h | 9797m | -3.9m/s | -29.4°C | 0% | 0hPa | 0V | 00:00:00 | 00:00:00 | 00:00:00 | |
| ARGUS2 | 2026-09-04 13:45:22 | 27.93512 | -83.20346 | 303° | 38km/h | 9881m | -4.4m/s | -30.1°C | 0% | 0hPa | 0V | 00:00:00 | 00:00:00 | 00:00:00 | |
| ARGUS2 | 2026-09-04 13:44:42 | 27.93225 | -83.20031 | 321° | 49km/h | 10059m | -4.3m/s | -31.7°C | 0% | 0hPa | 0V | 00:00:00 | 00:00:00 | 00:00:00 | |
| ARGUS2 | 2026-09-04 13:44:20 | 27.93083 | -83.19878 | 300° | 40km/h | 10149m | -4.4m/s | -32.5°C | 0% | 0hPa | 0V | 00:00:00 | 00:00:00 | 00:00:00 | |
| ARGUS2 | 2026-09-04 13:44:00 | 27.92923 | -83.19718 | 335° | 35km/h | 10233m | -4.1m/s | -33.2°C | 0% | 0hPa | 0V | 00:00:00 | 00:00:00 | 00:00:00 | |
| ARGUS2 | 2026-09-04 13:43:40 | 27.92775 | -83.19550 | 320° | 53km/h | 10319m | -4.3m/s | -34.1°C | 0% | 0hPa | 0V | 00:00:00 | 00:00:00 | 00:00:00 | |
| ARGUS2 | 2026-09-04 13:43:19 | 27.92624 | -83.19405 | 300° | 37km/h | 10400m | -4.2m/s | -34.8°C | 0% | 0hPa | 0V | 00:00:00 | 00:00:00 | 00:00:00 | |
| ARGUS2 | 2026-09-04 13:42:59 | 27.92468 | -83.19224 | 330° | 33km/h | 10485m | -4.2m/s | -35.4°C | 0% | 0hPa | 0V | 00:00:00 | 00:00:00 | 00:00:00 | |
| ARGUS2 | 2026-09-04 13:42:38 | 27.92330 | -83.19047 | 316° | 55km/h | 10568m | -4.3m/s | -36.3°C | 0% | 0hPa | 0V | 00:00:00 | 00:00:00 | 00:00:00 | |
| ARGUS2 | 2026-09-04 13:42:17 | 27.92167 | -83.18875 | 300° | 42km/h | 10657m | -4.3m/s | -36.9°C | 0% | 0hPa | 0V | 00:00:00 | 00:00:00 | 00:00:00 | |
| ARGUS2 | 2026-09-04 13:41:57 | 27.92008 | -83.18699 | 321° | 33km/h | 10741m | -4.2m/s | -37.3°C | 0% | 0hPa | 0V | 00:00:00 | 00:00:00 | 00:00:00 | |
| ARGUS2 | 2026-09-04 13:41:36 | 27.91862 | -83.18489 | 324° | 51km/h | 10827m | -4.2m/s | -38.1°C | 0% | 0hPa | 0V | 00:00:00 | 00:00:00 | 00:00:00 | |
| ARGUS2 | 2026-09-04 13:41:16 | 27.91720 | -83.18303 | 300° | 53km/h | 10908m | -4.1m/s | -38.9°C | 0% | 0hPa | 0V | 00:00:00 | 00:00:00 | 00:00:00 | |
| ARGUS2 | 2026-09-04 13:40:56 | 27.91542 | -83.18105 | 309° | 35km/h | 10994m | -4.1m/s | -39.5°C | 0% | 0hPa | 0V | 00:00:00 | 00:00:00 | 00:00:00 | |
| ARGUS2 | 2026-09-04 13:40:35 | 27.91381 | -83.17899 | 328° | 53km/h | 11075m | -3.8m/s | -40.2°C | 0% | 0hPa | 0V | 00:00:00 | 00:00:00 | 00:00:00 | |
| ARGUS2 | 2026-09-04 13:40:14 | 27.91216 | -83.17682 | 309° | 64km/h | 11158m | -4.1m/s | -40.6°C | 0% | 0hPa | 0V | 00:00:00 | 00:00:00 | 00:00:00 | |
| ARGUS2 | 2026-09-04 13:39:55 | 27.91054 | -83.17459 | 293° | 51km/h | 11238m | -4.0m/s | -41.2°C | 0% | 0hPa | 0V | 00:00:00 | 00:00:00 | 00:00:00 | |
| ARGUS2 | 2026-09-04 13:39:34 | 27.90887 | -83.17198 | 303° | 40km/h | 11321m | -3.8m/s | -41.8°C | 0% | 0hPa | 0V | 00:00:00 | 00:00:00 | 00:00:00 | |
| ARGUS2 | 2026-09-04 13:39:12 | 27.90738 | -83.16914 | 316° | 55km/h | 11406m | -4.0m/s | -42.4°C | 0% | 0hPa | 0V | 00:00:00 | 00:00:00 | 00:00:00 | |
| ARGUS2 | 2026-09-04 13:38:52 | 27.90594 | -83.16643 | 304° | 69km/h | 11486m | -4.2m/s | -43.0°C | 0% | 0hPa | 0V | 00:00:00 | 00:00:00 | 00:00:00 | |
| ARGUS2 | 2026-09-04 13:38:31 | 27.90438 | -83.16361 | 291° | 64km/h | 11571m | -4.0m/s | -43.7°C | 0% | 0hPa | 0V | 00:00:00 | 00:00:00 | 00:00:00 | |
| ARGUS2 | 2026-09-04 13:38:11 | 27.90278 | -83.16074 | 299° | 46km/h | 11650m | -4.1m/s | -44.1°C | 0% | 0hPa | 0V | 00:00:00 | 00:00:00 | 00:00:00 | |
| ARGUS2 | 2026-09-04 13:37:50 | 27.90124 | -83.15759 | 314° | 55km/h | 11729m | -4.0m/s | -44.9°C | 0% | 0hPa | 0V | 00:00:00 | 00:00:00 | 00:00:00 | |
| ARGUS2 | 2026-09-04 13:37:30 | 27.89993 | -83.15467 | 301° | 73km/h | 11808m | -4.1m/s | -45.7°C | 0% | 0hPa | 0V | 00:00:00 | 00:00:00 | 00:00:00 | |
| ARGUS2 | 2026-09-04 13:37:09 | 27.89848 | -83.15146 | 292° | 73km/h | 11888m | -3.8m/s | -46.3°C | 0% | 0hPa | 0V | 00:00:00 | 00:00:00 | 00:00:00 | |
| ARGUS2 | 2026-09-04 13:36:49 | 27.89677 | -83.14847 | 296° | 49km/h | 11967m | -3.8m/s | -46.8°C | 0% | 0hPa | 0V | 00:00:00 | 00:00:00 | 00:00:00 | |
| ARGUS2 | 2026-09-04 13:36:29 | 27.89479 | -83.14530 | 317° | 55km/h | 12054m | -4.2m/s | -47.4°C | 0% | 0hPa | 0V | 00:00:00 | 00:00:00 | 00:00:00 | |
| ARGUS2 | 2026-09-04 13:36:08 | 27.89287 | -83.14223 | 317° | 73km/h | 12137m | -4.2m/s | -47.9°C | 0% | 0hPa | 0V | 00:00:00 | 00:00:00 | 00:00:00 | |
| ARGUS2 | 2026-09-04 13:35:47 | 27.89089 | -83.13923 | 307° | 78km/h | 12228m | -4.4m/s | -48.4°C | 0% | 0hPa | 0V | 00:00:00 | 00:00:00 | 00:00:00 | |
| ARGUS2 | 2026-09-04 13:35:27 | 27.88897 | -83.13635 | 293° | 62km/h | 12315m | -4.2m/s | -49.0°C | 0% | 0hPa | 0V | 00:00:00 | 00:00:00 | 00:00:00 | |
| ARGUS2 | 2026-09-04 13:35:07 | 27.88708 | -83.13322 | 292° | 57km/h | 12407m | -4.5m/s | -49.7°C | 0% | 0hPa | 0V | 00:00:00 | 00:00:00 | 00:00:00 | |
| ARGUS2 | 2026-09-04 13:34:46 | 27.88530 | -83.13011 | 302° | 49km/h | 12499m | -4.7m/s | -50.1°C | 0% | 0hPa | 0V | 00:00:00 | 00:00:00 | 00:00:00 | |
| ARGUS2 | 2026-09-04 13:34:26 | 27.88361 | -83.12671 | 310° | 55km/h | 12596m | -4.8m/s | -50.6°C | 0% | 0hPa | 0V | 00:00:00 | 00:00:00 | 00:00:00 | |
| ARGUS2 | 2026-09-04 13:34:05 | 27.88238 | -83.12347 | 305° | 69km/h | 12689m | -4.6m/s | -51.4°C | 0% | 0hPa | 0V | 00:00:00 | 00:00:00 | 00:00:00 | |
| ARGUS2 | 2026-09-04 13:33:45 | 27.88115 | -83.12016 | 290° | 77km/h | 12788m | -4.9m/s | -52.3°C | 0% | 0hPa | 0V | 00:00:00 | 00:00:00 | 00:00:00 | |
| ARGUS2 | 2026-09-04 13:33:23 | 27.87992 | -83.11673 | 280° | 69km/h | 12888m | -4.7m/s | -53.0°C | 0% | 0hPa | 0V | 00:00:00 | 00:00:00 | 00:00:00 | |
| ARGUS2 | 2026-09-04 13:32:42 | 27.87763 | -83.10976 | 295° | 49km/h | 13081m | -4.7m/s | -54.7°C | 0% | 0hPa | 0V | 00:00:00 | 00:00:00 | 00:00:00 | |
| ARGUS2 | 2026-09-04 13:32:22 | 27.87666 | -83.10625 | 303° | 68km/h | 13176m | -4.8m/s | -55.5°C | 0% | 0hPa | 0V | 00:00:00 | 00:00:00 | 00:00:00 | |
| ARGUS2 | 2026-09-04 13:32:02 | 27.87547 | -83.10285 | 303° | 73km/h | 13282m | -5.5m/s | -56.5°C | 0% | 0hPa | 0V | 00:00:00 | 00:00:00 | 00:00:00 | |
| ARGUS2 | 2026-09-04 13:31:41 | 27.87411 | -83.09991 | 287° | 69km/h | 13388m | -5.3m/s | -57.3°C | 0% | 0hPa | 0V | 00:00:00 | 00:00:00 | 00:00:00 | |
| ARGUS2 | 2026-09-04 13:31:20 | 27.87271 | -83.09671 | 281° | 58km/h | 13501m | -5.6m/s | -57.9°C | 0% | 0hPa | 0V | 00:00:00 | 00:00:00 | 00:00:00 | |
| ARGUS2 | 2026-09-04 13:31:00 | 27.87136 | -83.09364 | 295° | 42km/h | 13610m | -5.3m/s | -58.6°C | 0% | 0hPa | 0V | 00:00:00 | 00:00:00 | 00:00:00 | |
| ARGUS2 | 2026-09-04 13:30:40 | 27.87010 | -83.09043 | 313° | 49km/h | 13725m | -5.2m/s | -59.4°C | 0% | 0hPa | 0V | 00:00:00 | 00:00:00 | 00:00:00 | |
| ARGUS2 | 2026-09-04 13:30:19 | 27.86901 | -83.08750 | 304° | 68km/h | 13834m | -5.1m/s | -60.4°C | 0% | 0hPa | 0V | 00:00:00 | 00:00:00 | 00:00:00 | |
| ARGUS2 | 2026-09-04 13:29:59 | 27.86809 | -83.08453 | 285° | 68km/h | 13950m | -5.6m/s | -61.2°C | 0% | 0hPa | 0V | 00:00:00 | 00:00:00 | 00:00:00 | |
| ARGUS2 | 2026-09-04 13:29:38 | 27.86738 | -83.08175 | 268° | 53km/h | 14059m | -5.3m/s | -62.0°C | 0% | 0hPa | 0V | 00:00:00 | 00:00:00 | 00:00:00 | |
| ARGUS2 | 2026-09-04 13:29:18 | 27.86660 | -83.07879 | 280° | 35km/h | 14174m | -5.2m/s | -62.9°C | 0% | 0hPa | 0V | 00:00:00 | 00:00:00 | 00:00:00 | |
| ARGUS2 | 2026-09-04 13:28:57 | 27.86593 | -83.07587 | 303° | 44km/h | 14281m | -5.2m/s | -63.6°C | 0% | 0hPa | 0V | 00:00:00 | 00:00:00 | 00:00:00 | |
| ARGUS2 | 2026-09-04 13:28:37 | 27.86530 | -83.07286 | 302° | 58km/h | 14390m | -4.7m/s | -64.5°C | 0% | 0hPa | 0V | 00:00:00 | 00:00:00 | 00:00:00 | |
| ARGUS2 | 2026-09-04 13:28:16 | 27.86464 | -83.07005 | 285° | 69km/h | 14490m | -5.0m/s | -65.2°C | 0% | 0hPa | 0V | 00:00:00 | 00:00:00 | 00:00:00 | |
| ARGUS2 | 2026-09-04 13:27:56 | 27.86388 | -83.06729 | 269° | 55km/h | 14593m | -4.8m/s | -65.3°C | 0% | 0hPa | 0V | 00:00:00 | 00:00:00 | 00:00:00 | |
| ARGUS2 | 2026-09-04 13:27:34 | 27.86304 | -83.06444 | 274° | 40km/h | 14695m | -4.7m/s | -65.4°C | 0% | 0hPa | 0V | 00:00:00 | 00:00:00 | 00:00:00 | |
| ARGUS2 | 2026-09-04 13:27:14 | 27.86201 | -83.06184 | 319° | 38km/h | 14792m | -4.9m/s | -65.7°C | 0% | 0hPa | 0V | 00:00:00 | 00:00:00 | 00:00:00 | |
| ARGUS2 | 2026-09-04 13:26:53 | 27.86068 | -83.05942 | 325° | 53km/h | 14895m | -4.7m/s | -65.4°C | 0% | 0hPa | 0V | 00:00:00 | 00:00:00 | 00:00:00 | |
| ARGUS2 | 2026-09-04 13:26:33 | 27.85952 | -83.05728 | 296° | 64km/h | 14993m | -5.0m/s | -64.3°C | 0% | 0hPa | 0V | 00:00:00 | 00:00:00 | 00:00:00 | |
| ARGUS2 | 2026-09-04 13:26:13 | 27.85838 | -83.05478 | 292° | 64km/h | 15100m | -5.6m/s | -64.9°C | 0% | 0hPa | 0V | 00:00:00 | 00:00:00 | 00:00:00 | |
| ARGUS2 | 2026-09-04 13:25:52 | 27.85712 | -83.05256 | 282° | 40km/h | 15205m | -5.0m/s | -65.4°C | 0% | 0hPa | 0V | 00:00:00 | 00:00:00 | 00:00:00 | |
| ARGUS2 | 2026-09-04 13:25:32 | 27.85553 | -83.05058 | 319° | 26km/h | 15319m | -5.5m/s | -65.9°C | 0% | 0hPa | 0V | 00:00:00 | 00:00:00 | 00:00:00 | |
| ARGUS2 | 2026-09-04 13:25:11 | 27.85400 | -83.04873 | 341° | 46km/h | 15429m | -5.5m/s | -66.4°C | 0% | 0hPa | 0V | 00:00:00 | 00:00:00 | 00:00:00 | |
| ARGUS2 | 2026-09-04 13:24:51 | 27.85245 | -83.04706 | 334° | 46km/h | 15545m | -5.2m/s | -65.9°C | 0% | 0hPa | 0V | 00:00:00 | 00:00:00 | 00:00:00 | |
| ARGUS2 | 2026-09-04 13:24:30 | 27.85167 | -83.04542 | 291° | 51km/h | 15659m | -5.6m/s | -66.4°C | 0% | 0hPa | 0V | 00:00:00 | 00:00:00 | 00:00:00 | |
| ARGUS2 | 2026-09-04 13:24:10 | 27.85103 | -83.04377 | 274° | 46km/h | 15780m | -5.7m/s | -66.9°C | 0% | 0hPa | 0V | 00:00:00 | 00:00:00 | 00:00:00 | |
| ARGUS2 | 2026-09-04 13:23:49 | 27.85058 | -83.04214 | 238° | 26km/h | 15897m | -5.9m/s | -67.3°C | 0% | 0hPa | 0V | 00:00:00 | 00:00:00 | 00:00:00 | |
| ARGUS2 | 2026-09-04 13:23:29 | 27.85044 | -83.04014 | 276° | 16km/h | 16020m | -5.6m/s | -68.1°C | 0% | 0hPa | 0V | 00:00:00 | 00:00:00 | 00:00:00 | |
| ARGUS2 | 2026-09-04 13:23:08 | 27.85077 | -83.03821 | 280° | 47km/h | 16137m | -5.8m/s | -68.6°C | 0% | 0hPa | 0V | 00:00:00 | 00:00:00 | 00:00:00 | |
| ARGUS2 | 2026-09-04 13:22:48 | 27.85109 | -83.03615 | 266° | 55km/h | 16260m | -6.1m/s | -68.6°C | 0% | 0hPa | 0V | 00:00:00 | 00:00:00 | 00:00:00 | |
| ARGUS2 | 2026-09-04 13:22:26 | 27.85126 | -83.03425 | 246° | 46km/h | 16385m | -5.9m/s | -68.6°C | 0% | 0hPa | 0V | 00:00:00 | 00:00:00 | 00:00:00 | |
| ARGUS2 | 2026-09-04 13:22:06 | 27.85109 | -83.03290 | 227° | 4km/h | 16502m | -5.9m/s | -68.1°C | 0% | 0hPa | 0V | 00:00:00 | 00:00:00 | 00:00:00 | |
| ARGUS2 | 2026-09-04 13:21:45 | 27.85046 | -83.03179 | 351° | 22km/h | 16627m | -5.8m/s | -68.3°C | 0% | 0hPa | 0V | 00:00:00 | 00:00:00 | 00:00:00 | |
| ARGUS2 | 2026-09-04 13:21:25 | 27.84993 | -83.03045 | 311° | 49km/h | 16748m | -6.1m/s | -69.0°C | 0% | 0hPa | 0V | 00:00:00 | 00:00:00 | 00:00:00 | |
| ARGUS2 | 2026-09-04 13:21:04 | 27.84898 | -83.02897 | 297° | 49km/h | 16875m | -6.1m/s | -68.9°C | 0% | 0hPa | 0V | 00:00:00 | 00:00:00 | 00:00:00 | |
| ARGUS2 | 2026-09-04 13:20:44 | 27.84827 | -83.02766 | 230° | 20km/h | 16995m | -6.1m/s | -68.6°C | 0% | 0hPa | 0V | 00:00:00 | 00:00:00 | 00:00:00 | |
| ARGUS2 | 2026-09-04 13:20:23 | 27.84797 | -83.02673 | 103° | 13km/h | 17122m | -6.4m/s | -68.4°C | 0% | 0hPa | 0V | 00:00:00 | 00:00:00 | 00:00:00 | |
| ARGUS2 | 2026-09-04 13:20:03 | 27.84812 | -83.02620 | 329° | 20km/h | 17248m | -6.3m/s | -69.1°C | 0% | 0hPa | 0V | 00:00:00 | 00:00:00 | 00:00:00 | |
| ARGUS2 | 2026-09-04 13:19:42 | 27.84831 | -83.02623 | 317° | 16km/h | 17383m | -6.2m/s | -69.4°C | 0% | 0hPa | 0V | 00:00:00 | 00:00:00 | 00:00:00 | |
| ARGUS2 | 2026-09-04 13:19:22 | 27.84818 | -83.02662 | 198° | 24km/h | 17509m | -6.7m/s | -69.5°C | 0% | 0hPa | 0V | 00:00:00 | 00:00:00 | 00:00:00 | |
| ARGUS2 | 2026-09-04 13:18:41 | 27.84925 | -83.02353 | 289° | 31km/h | 17803m | -7.4m/s | -68.8°C | 0% | 0hPa | 0V | 00:00:00 | 00:00:00 | 00:00:00 | |
| ARGUS2 | 2026-09-04 13:18:21 | 27.84947 | -83.02118 | 297° | 53km/h | 17961m | -7.4m/s | -68.4°C | 0% | 0hPa | 0V | 00:00:00 | 00:00:00 | 00:00:00 | |
| ARGUS2 | 2026-09-04 13:18:00 | 27.84899 | -83.01992 | 242° | 27km/h | 18109m | -7.7m/s | -67.1°C | 0% | 0hPa | 0V | 00:00:00 | 00:00:00 | 00:00:00 | |
| ARGUS2 | 2026-09-04 13:17:40 | 27.84892 | -83.01879 | 183° | 24km/h | 18269m | -7.4m/s | -67.4°C | 0% | 0hPa | 0V | 00:00:00 | 00:00:00 | 00:00:00 | |
| ARGUS2 | 2026-09-04 13:17:18 | 27.84949 | -83.01746 | 199° | 15km/h | 18427m | -7.3m/s | -67.6°C | 0% | 0hPa | 0V | 00:00:00 | 00:00:00 | 00:00:00 | |
| ARGUS2 | 2026-09-04 13:16:58 | 27.85020 | -83.01539 | 291° | 38km/h | 18575m | -7.7m/s | -67.1°C | 0% | 0hPa | 0V | 00:00:00 | 00:00:00 | 00:00:00 | |
| ARGUS2 | 2026-09-04 13:16:37 | 27.85081 | -83.01283 | 275° | 71km/h | 18729m | -7.2m/s | -66.2°C | 0% | 0hPa | 0V | 00:00:00 | 00:00:00 | 00:00:00 | |
| ARGUS2 | 2026-09-04 13:16:17 | 27.85066 | -83.01050 | 251° | 47km/h | 18877m | -7.4m/s | -65.6°C | 0% | 0hPa | 0V | 00:00:00 | 00:00:00 | 00:00:00 | |
| ARGUS2 | 2026-09-04 13:15:57 | 27.85019 | -83.00880 | 201° | 16km/h | 19039m | -7.5m/s | -64.6°C | 0% | 0hPa | 0V | 00:00:00 | 00:00:00 | 00:00:00 | |
| ARGUS2 | 2026-09-04 13:15:36 | 27.85011 | -83.00719 | 343° | 24km/h | 19201m | -8.0m/s | -62.2°C | 0% | 0hPa | 0V | 00:00:00 | 00:00:00 | 00:00:00 | |
| ARGUS2 | 2026-09-04 13:15:16 | 27.84958 | -83.00579 | 350° | 31km/h | 19376m | -8.0m/s | -60.7°C | 0% | 0hPa | 0V | 00:00:00 | 00:00:00 | 00:00:00 | |
| ARGUS2 | 2026-09-04 13:14:55 | 27.84991 | -83.00510 | 262° | 38km/h | 19543m | -8.3m/s | -59.8°C | 0% | 0hPa | 0V | 00:00:00 | 00:00:00 | 00:00:00 | |
| ARGUS2 | 2026-09-04 13:14:35 | 27.85067 | -83.00403 | 244° | 57km/h | 19719m | -8.6m/s | -59.7°C | 0% | 0hPa | 0V | 00:00:00 | 00:00:00 | 00:00:00 | |
| ARGUS2 | 2026-09-04 13:14:14 | 27.85069 | -83.00203 | 227° | 29km/h | 19897m | -8.7m/s | -58.9°C | 0% | 0hPa | 0V | 00:00:00 | 00:00:00 | 00:00:00 | |
| ARGUS2 | 2026-09-04 13:13:54 | 27.85084 | -83.00004 | 207° | 20km/h | 20082m | -8.8m/s | -58.6°C | 0% | 0hPa | 0V | 00:00:00 | 00:00:00 | 00:00:00 | |
| ARGUS2 | 2026-09-04 13:13:33 | 27.85106 | -82.99773 | 324° | 35km/h | 20264m | -8.8m/s | -57.5°C | 0% | 0hPa | 0V | 00:00:00 | 00:00:00 | 00:00:00 | |
| ARGUS2 | 2026-09-04 13:13:13 | 27.85008 | -82.99533 | 336° | 44km/h | 20457m | -8.9m/s | -57.4°C | 0% | 0hPa | 0V | 00:00:00 | 00:00:00 | 00:00:00 | |
| ARGUS2 | 2026-09-04 13:12:52 | 27.84970 | -82.99299 | 305° | 53km/h | 20643m | -9.0m/s | -57.3°C | 0% | 0hPa | 0V | 00:00:00 | 00:00:00 | 00:00:00 | |
| ARGUS2 | 2026-09-04 13:12:32 | 27.84998 | -82.99047 | 274° | 71km/h | 20844m | -9.9m/s | -56.7°C | 0% | 0hPa | 0V | 00:00:00 | 00:00:00 | 00:00:00 | |
| ARGUS2 | 2026-09-04 13:12:11 | 27.85015 | -82.98811 | 243° | 64km/h | 21042m | -10.3m/s | -56.3°C | 0% | 0hPa | 0V | 00:00:00 | 00:00:00 | 00:00:00 | |
| ARGUS2 | 2026-09-04 13:11:51 | 27.85039 | -82.98548 | 244° | 68km/h | 21261m | -10.7m/s | -54.9°C | 0% | 0hPa | 0V | 00:00:00 | 00:00:00 | 00:00:00 | |
| ARGUS2 | 2026-09-04 13:11:29 | 27.85011 | -82.98302 | 241° | 49km/h | 21484m | -10.3m/s | -55.6°C | 0% | 0hPa | 0V | 00:00:00 | 00:00:00 | 00:00:00 | |
| ARGUS2 | 2026-09-04 13:11:09 | 27.84964 | -82.98067 | 225° | 15km/h | 21703m | -10.7m/s | -55.3°C | 0% | 0hPa | 0V | 00:00:00 | 00:00:00 | 00:00:00 | |
| ARGUS2 | 2026-09-04 13:10:48 | 27.85000 | -82.97814 | 287° | 18km/h | 21939m | -11.2m/s | -54.5°C | 0% | 0hPa | 0V | 00:00:00 | 00:00:00 | 00:00:00 | |
| ARGUS2 | 2026-09-04 13:10:28 | 27.84999 | -82.97569 | 318° | 55km/h | 22164m | -10.7m/s | -54.5°C | 0% | 0hPa | 0V | 00:00:00 | 00:00:00 | 00:00:00 | |
| ARGUS2 | 2026-09-04 13:10:07 | 27.84979 | -82.97365 | 296° | 60km/h | 22395m | -10.7m/s | -54.3°C | 0% | 0hPa | 0V | 00:00:00 | 00:00:00 | 00:00:00 | |
| ARGUS2 | 2026-09-04 13:09:47 | 27.84960 | -82.97208 | 244° | 51km/h | 22605m | -10.4m/s | -54.0°C | 0% | 0hPa | 0V | 00:00:00 | 00:00:00 | 00:00:00 | |
| ARGUS2 | 2026-09-04 13:09:27 | 27.84973 | -82.96981 | 242° | 4km/h | 22812m | -9.0m/s | -53.6°C | 0% | 0hPa | 0V | 00:00:00 | 00:00:00 | 00:00:00 | |
| ARGUS2 | 2026-09-04 13:09:06 | 27.85079 | -82.96764 | 271° | 82km/h | 23012m | -9.8m/s | -54.0°C | 0% | 0hPa | 0V | 00:00:00 | 00:00:00 | 00:00:00 | |
| ARGUS2 | 2026-09-04 13:08:46 | 27.85139 | -82.96471 | 259° | 80km/h | 23236m | -11.1m/s | -54.1°C | 0% | 0hPa | 0V | 00:00:00 | 00:00:00 | 00:00:00 | |
| ARGUS2 | 2026-09-04 13:08:25 | 27.85159 | -82.96206 | 259° | 77km/h | 23457m | -12.6m/s | -53.8°C | 0% | 0hPa | 0V | 00:00:00 | 00:00:00 | 00:00:00 | |
| ARGUS2 | 2026-09-04 13:08:05 | 27.85106 | -82.95908 | 278° | 80km/h | 23702m | -11.4m/s | -54.1°C | 0% | 0hPa | 0V | 00:00:00 | 00:00:00 | 00:00:00 | |
| ARGUS2 | 2026-09-04 13:07:44 | 27.85094 | -82.95634 | 280° | 82km/h | 23953m | -12.8m/s | -54.0°C | 0% | 0hPa | 0V | 00:00:00 | 00:00:00 | 00:00:00 | |
| ARGUS2 | 2026-09-04 13:07:24 | 27.85069 | -82.95246 | 301° | 89km/h | 24234m | -13.7m/s | -53.5°C | 0% | 0hPa | 0V | 00:00:00 | 00:00:00 | 00:00:00 | |
| ARGUS2 | 2026-09-04 13:07:03 | 27.85063 | -82.94873 | 296° | 64km/h | 24518m | -14.1m/s | -52.3°C | 0% | 0hPa | 0V | 00:00:00 | 00:00:00 | 00:00:00 | |
| ARGUS2 | 2026-09-04 13:06:43 | 27.85108 | -82.94545 | 291° | 37km/h | 24826m | -14.4m/s | -52.6°C | 0% | 0hPa | 0V | 00:00:00 | 00:00:00 | 00:00:00 | |
| ARGUS2 | 2026-09-04 13:06:21 | 27.85164 | -82.94202 | 243° | 27km/h | 25144m | -14.9m/s | -51.9°C | 0% | 0hPa | 0V | 00:00:00 | 00:00:00 | 00:00:00 | |
| ARGUS2 | 2026-09-04 13:06:01 | 27.85176 | -82.93877 | 230° | 24km/h | 25447m | -14.9m/s | -51.9°C | 0% | 0hPa | 0V | 00:00:00 | 00:00:00 | 00:00:00 | |
| ARGUS2 | 2026-09-04 13:05:40 | 27.85230 | -82.93524 | 232° | 75km/h | 25765m | -14.2m/s | -51.5°C | 0% | 0hPa | 0V | 00:00:00 | 00:00:00 | 00:00:00 | |
| ARGUS2 | 2026-09-04 13:05:20 | 27.85275 | -82.93144 | 229° | 64km/h | 26065m | -15.5m/s | -49.4°C | 0% | 0hPa | 0V | 00:00:00 | 00:00:00 | 00:00:00 | |
| ARGUS2 | 2026-09-04 13:04:59 | 27.85308 | -82.92694 | 243° | 40km/h | 26362m | -14.3m/s | -46.3°C | 0% | 0hPa | 0V | 00:00:00 | 00:00:00 | 00:00:00 | |
| ARGUS2 | 2026-09-04 13:04:38 | 27.85342 | -82.92336 | 304° | 11km/h | 26675m | -13.1m/s | -44.6°C | 0% | 0hPa | 0V | 00:00:00 | 00:00:00 | 00:00:00 | |
| ARGUS2 | 2026-09-04 13:04:17 | 27.85387 | -82.92074 | 324° | 40km/h | 27007m | -16.2m/s | -43.6°C | 0% | 0hPa | 0V | 00:00:00 | 00:00:00 | 00:00:00 | |
| ARGUS2 | 2026-09-04 13:02:07 | 27.85716 | -82.90550 | 262° | 66km/h | 29544m | -35.3m/s | -45.0°C | 0% | 0hPa | 0V | 00:00:00 | 00:00:00 | 00:00:00 | |
| ARGUS2 | 2026-09-04 13:01:40 | 27.85685 | -82.90102 | 270° | 49km/h | 30526m | -36.8m/s | -42.6°C | 0% | 0hPa | 0V | 00:00:00 | 00:00:00 | 00:00:00 | |
| ARGUS2 | 2026-09-04 13:01:20 | 27.85701 | -82.89731 | 276° | 64km/h | 31335m | -40.4m/s | -41.2°C | 0% | 0hPa | 0V | 00:00:00 | 00:00:00 | 00:00:00 | |
| ARGUS2 | 2026-09-04 13:00:57 | 27.85549 | -82.89487 | 324° | 46km/h | 32198m | -33.8m/s | -38.6°C | 0% | 0hPa | 0V | 00:00:00 | 00:00:00 | 00:00:00 | |
| ARGUS2 | 2026-09-04 13:00:34 | 27.85444 | -82.89474 | 293° | 27km/h | 32817m | -21.5m/s | -40.6°C | 0% | 0hPa | 0V | 00:00:00 | 00:00:00 | 00:00:00 | |
| ARGUS2 | 2026-09-04 13:00:12 | 27.85596 | -82.89413 | 187° | 46km/h | 33128m | 5.8m/s | -41.1°C | 0% | 0hPa | 0V | 00:00:00 | 00:00:00 | 00:00:00 | |
| ARGUS2 | 2026-09-04 12:59:50 | 27.85736 | -82.89405 | 168° | 16km/h | 32937m | 5.7m/s | -40.7°C | 0% | 0hPa | 0V | 00:00:00 | 00:00:00 | 00:00:00 | |
| ARGUS2 | 2026-09-04 12:59:29 | 27.85813 | -82.89388 | 212° | 58km/h | 32763m | 7.3m/s | -39.5°C | 0% | 0hPa | 0V | 00:00:00 | 00:00:00 | 00:00:00 | |
| ARGUS2 | 2026-09-04 12:59:02 | 27.85843 | -82.89375 | 219° | 38km/h | 32560m | 8.7m/s | -38.1°C | 0% | 0hPa | 0V | 00:00:00 | 00:00:00 | 00:00:00 | |
| ARGUS2 | 2026-09-04 12:58:13 | 27.85656 | -82.89215 | 330° | 44km/h | 32206m | 5.2m/s | -37.7°C | 0% | 0hPa | 0V | 00:00:00 | 00:00:00 | 00:00:00 | |
| ARGUS2 | 2026-09-04 12:57:52 | 27.85508 | -82.89036 | 246° | 51km/h | 32063m | 5.4m/s | -38.7°C | 0% | 0hPa | 0V | 00:00:00 | 00:00:00 | 00:00:00 | |
| ARGUS2 | 2026-09-04 12:57:32 | 27.85369 | -82.88766 | 318° | 77km/h | 31929m | 5.8m/s | -39.6°C | 0% | 0hPa | 0V | 00:00:00 | 00:00:00 | 00:00:00 | |
| ARGUS2 | 2026-09-04 12:57:11 | 27.85262 | -82.88450 | 256° | 51km/h | 31794m | 5.7m/s | -39.7°C | 0% | 0hPa | 0V | 00:00:00 | 00:00:00 | 00:00:00 | |
| ARGUS2 | 2026-09-04 12:56:49 | 27.85198 | -82.88096 | 304° | 80km/h | 31659m | 4.8m/s | -41.2°C | 0% | 0hPa | 0V | 00:00:00 | 00:00:00 | 00:00:00 | |
| ARGUS2 | 2026-09-04 12:56:27 | 27.85200 | -82.87679 | 269° | 82km/h | 31511m | 8.8m/s | -42.9°C | 0% | 0hPa | 0V | 00:00:00 | 00:00:00 | 00:00:00 | |
| ARGUS2 | 2026-09-04 12:56:00 | 27.85230 | -82.87203 | 272° | 66km/h | 31339m | 9.1m/s | -43.2°C | 0% | 0hPa | 0V | 00:00:00 | 00:00:00 | 00:00:00 | |
| ARGUS2 | 2026-09-04 12:55:37 | 27.85284 | -82.86776 | 247° | 86km/h | 31181m | 4.0m/s | -42.9°C | 0% | 0hPa | 0V | 00:00:00 | 00:00:00 | 00:00:00 | |
| ARGUS2 | 2026-09-04 12:55:16 | 27.85260 | -82.86336 | 271° | 46km/h | 31015m | 10.0m/s | -43.0°C | 0% | 0hPa | 0V | 00:00:00 | 00:00:00 | 00:00:00 | |
| ARGUS2 | 2026-09-04 12:54:54 | 27.85311 | -82.85986 | 253° | 57km/h | 30837m | 8.1m/s | -42.5°C | 0% | 0hPa | 0V | 00:00:00 | 00:00:00 | 00:00:00 | |
| ARGUS2 | 2026-09-04 12:54:31 | 27.85388 | -82.85583 | 268° | 49km/h | 30664m | 7.7m/s | -42.5°C | 0% | 0hPa | 0V | 00:00:00 | 00:00:00 | 00:00:00 | |
| ARGUS2 | 2026-09-04 12:54:10 | 27.85399 | -82.85295 | 271° | 47km/h | 30513m | 8.8m/s | -42.2°C | 0% | 0hPa | 0V | 00:00:00 | 00:00:00 | 00:00:00 | |
| ARGUS2 | 2026-09-04 12:53:50 | 27.85382 | -82.84961 | 301° | 66km/h | 30368m | 8.4m/s | -41.9°C | 0% | 0hPa | 0V | 00:00:00 | 00:00:00 | 00:00:00 | |
| ARGUS2 | 2026-09-04 12:53:27 | 27.85326 | -82.84620 | 262° | 57km/h | 30206m | 5.3m/s | -42.7°C | 0% | 0hPa | 0V | 00:00:00 | 00:00:00 | 00:00:00 | |
| ARGUS2 | 2026-09-04 12:53:03 | 27.85275 | -82.84234 | 275° | 57km/h | 30051m | 5.7m/s | -43.5°C | 0% | 0hPa | 0V | 00:00:00 | 00:00:00 | 00:00:00 | |
| ARGUS2 | 2026-09-04 12:52:43 | 27.85234 | -82.83885 | 267° | 68km/h | 29925m | 7.4m/s | -44.2°C | 0% | 0hPa | 0V | 00:00:00 | 00:00:00 | 00:00:00 | |
| ARGUS2 | 2026-09-04 12:52:21 | 27.85242 | -82.83464 | 276° | 88km/h | 29805m | 7.9m/s | -45.1°C | 0% | 0hPa | 0V | 00:00:00 | 00:00:00 | 00:00:00 | |
| ARGUS2 | 2026-09-04 12:52:00 | 27.85256 | -82.83028 | 261° | 55km/h | 29689m | 2.6m/s | -45.4°C | 0% | 0hPa | 0V | 00:00:00 | 00:00:00 | 00:00:00 | |
| ARGUS2 | 2026-09-04 12:51:24 | 27.85361 | -82.82345 | 269° | 89km/h | 29487m | 3.4m/s | -45.3°C | 0% | 0hPa | 0V | 00:00:00 | 00:00:00 | 00:00:00 | |
| ARGUS2 | 2026-09-04 12:51:02 | 27.85405 | -82.81914 | 252° | 53km/h | 29361m | 3.9m/s | -45.6°C | 0% | 0hPa | 0V | 00:00:00 | 00:00:00 | 00:00:00 | |
| ARGUS2 | 2026-09-04 12:50:40 | 27.85412 | -82.81608 | 272° | 88km/h | 29226m | 5.2m/s | -46.3°C | 0% | 0hPa | 0V | 00:00:00 | 00:00:00 | 00:00:00 | |
| ARGUS2 | 2026-09-04 12:50:16 | 27.85397 | -82.81186 | 283° | 75km/h | 29077m | 4.5m/s | -46.1°C | 0% | 0hPa | 0V | 00:00:00 | 00:00:00 | 00:00:00 | |
| ARGUS2 | 2026-09-04 12:49:55 | 27.85392 | -82.80848 | 276° | 71km/h | 28940m | 4.8m/s | -45.9°C | 0% | 0hPa | 0V | 00:00:00 | 00:00:00 | 00:00:00 | |
| ARGUS2 | 2026-09-04 12:49:33 | 27.85365 | -82.80434 | 285° | 31km/h | 28783m | 8.4m/s | -45.5°C | 0% | 0hPa | 0V | 00:00:00 | 00:00:00 | 00:00:00 | |
| ARGUS2 | 2026-09-04 12:49:13 | 27.85325 | -82.80097 | 278° | 66km/h | 28655m | 5.9m/s | -44.8°C | 0% | 0hPa | 0V | 00:00:00 | 00:00:00 | 00:00:00 | |
| ARGUS2 | 2026-09-04 12:48:42 | 27.85247 | -82.79606 | 267° | 57km/h | 28449m | 6.6m/s | -45.1°C | 0% | 0hPa | 0V | 00:00:00 | 00:00:00 | 00:00:00 | |
| ARGUS2 | 2026-09-04 12:48:21 | 27.85245 | -82.79313 | 265° | 69km/h | 28307m | 5.2m/s | -45.0°C | 0% | 0hPa | 0V | 00:00:00 | 00:00:00 | 00:00:00 | |
| ARGUS2 | 2026-09-04 12:47:59 | 27.85296 | -82.79023 | 243° | 69km/h | 28156m | 4.8m/s | -45.6°C | 0% | 0hPa | 0V | 00:00:00 | 00:00:00 | 00:00:00 | |
| ARGUS2 | 2026-09-04 12:47:37 | 27.85411 | -82.78734 | 237° | 68km/h | 28010m | 5.2m/s | -46.9°C | 0% | 0hPa | 0V | 00:00:00 | 00:00:00 | 00:00:00 | |
| ARGUS2 | 2026-09-04 12:47:16 | 27.85549 | -82.78447 | 250° | 68km/h | 27875m | 7.2m/s | -46.8°C | 0% | 0hPa | 0V | 00:00:00 | 00:00:00 | 00:00:00 | |
| ARGUS2 | 2026-09-04 12:46:55 | 27.85653 | -82.78207 | 251° | 55km/h | 27738m | 3.4m/s | -46.4°C | 0% | 0hPa | 0V | 00:00:00 | 00:00:00 | 00:00:00 | |
| ARGUS2 | 2026-09-04 12:46:34 | 27.85722 | -82.78027 | 242° | 33km/h | 27604m | 4.6m/s | -46.4°C | 0% | 0hPa | 0V | 00:00:00 | 00:00:00 | 00:00:00 | |
| ARGUS2 | 2026-09-04 12:46:13 | 27.85775 | -82.77890 | 279° | 33km/h | 27476m | 5.9m/s | -46.4°C | 0% | 0hPa | 0V | 00:00:00 | 00:00:00 | 00:00:00 | |
| ARGUS2 | 2026-09-04 12:45:52 | 27.85798 | -82.77713 | 267° | 38km/h | 27350m | 4.8m/s | -46.4°C | 0% | 0hPa | 0V | 00:00:00 | 00:00:00 | 00:00:00 | |
| ARGUS2 | 2026-09-04 12:45:32 | 27.85817 | -82.77477 | 276° | 47km/h | 27227m | 4.7m/s | -46.7°C | 0% | 0hPa | 0V | 00:00:00 | 00:00:00 | 00:00:00 | |
| ARGUS2 | 2026-09-04 12:45:11 | 27.85834 | -82.77209 | 265° | 69km/h | 27091m | 2.7m/s | -47.4°C | 0% | 0hPa | 0V | 00:00:00 | 00:00:00 | 00:00:00 | |
| ARGUS2 | 2026-09-04 12:44:50 | 27.85886 | -82.76974 | 259° | 58km/h | 26967m | 2.0m/s | -47.5°C | 0% | 0hPa | 0V | 00:00:00 | 00:00:00 | 00:00:00 | |
| ARGUS2 | 2026-09-04 12:44:28 | 27.85984 | -82.76719 | 243° | 49km/h | 26828m | 6.8m/s | -48.0°C | 0% | 0hPa | 0V | 00:00:00 | 00:00:00 | 00:00:00 | |
| ARGUS2 | 2026-09-04 12:44:07 | 27.86037 | -82.76378 | 256° | 49km/h | 26683m | 6.5m/s | -48.3°C | 0% | 0hPa | 0V | 00:00:00 | 00:00:00 | 00:00:00 | |
| ARGUS2 | 2026-09-04 12:43:47 | 27.86098 | -82.76111 | 256° | 31km/h | 26565m | 4.4m/s | -48.5°C | 0% | 0hPa | 0V | 00:00:00 | 00:00:00 | 00:00:00 | |
| ARGUS2 | 2026-09-04 12:43:26 | 27.86121 | -82.75791 | 272° | 55km/h | 26449m | 4.2m/s | -49.1°C | 0% | 0hPa | 0V | 00:00:00 | 00:00:00 | 00:00:00 | |
| ARGUS2 | 2026-09-04 12:43:05 | 27.86173 | -82.75381 | 270° | 69km/h | 26326m | 4.9m/s | -49.7°C | 0% | 0hPa | 0V | 00:00:00 | 00:00:00 | 00:00:00 | |
| ARGUS2 | 2026-09-04 12:42:45 | 27.86235 | -82.74966 | 257° | 78km/h | 26205m | 7.6m/s | -51.3°C | 0% | 0hPa | 0V | 00:00:00 | 00:00:00 | 00:00:00 | |
| ARGUS2 | 2026-09-04 12:42:23 | 27.86337 | -82.74544 | 237° | 82km/h | 26090m | 3.0m/s | -51.9°C | 0% | 0hPa | 0V | 00:00:00 | 00:00:00 | 00:00:00 | |
| ARGUS2 | 2026-09-04 12:42:02 | 27.86417 | -82.74165 | 266° | 58km/h | 25974m | 6.9m/s | -52.4°C | 0% | 0hPa | 0V | 00:00:00 | 00:00:00 | 00:00:00 | |
| ARGUS2 | 2026-09-04 12:41:42 | 27.86448 | -82.73824 | 276° | 49km/h | 25853m | 5.6m/s | -53.1°C | 0% | 0hPa | 0V | 00:00:00 | 00:00:00 | 00:00:00 | |
| ARGUS2 | 2026-09-04 12:41:22 | 27.86501 | -82.73479 | 267° | 47km/h | 25741m | 6.6m/s | -53.0°C | 0% | 0hPa | 0V | 00:00:00 | 00:00:00 | 00:00:00 | |
| ARGUS2 | 2026-09-04 12:41:01 | 27.86580 | -82.73086 | 258° | 57km/h | 25618m | 4.0m/s | -53.2°C | 0% | 0hPa | 0V | 00:00:00 | 00:00:00 | 00:00:00 | |
| ARGUS2 | 2026-09-04 12:40:40 | 27.86633 | -82.72736 | 259° | 40km/h | 25483m | 5.8m/s | -52.4°C | 0% | 0hPa | 0V | 00:00:00 | 00:00:00 | 00:00:00 | |
| ARGUS2 | 2026-09-04 12:40:20 | 27.86661 | -82.72463 | 268° | 57km/h | 25358m | 7.4m/s | -51.9°C | 0% | 0hPa | 0V | 00:00:00 | 00:00:00 | 00:00:00 | |
| ARGUS2 | 2026-09-04 12:39:59 | 27.86653 | -82.72186 | 283° | 55km/h | 25232m | 5.9m/s | -51.9°C | 0% | 0hPa | 0V | 00:00:00 | 00:00:00 | 00:00:00 | |
| ARGUS2 | 2026-09-04 12:39:39 | 27.86624 | -82.71874 | 271° | 60km/h | 25097m | 7.8m/s | -51.7°C | 0% | 0hPa | 0V | 00:00:00 | 00:00:00 | 00:00:00 | |
| ARGUS2 | 2026-09-04 12:39:19 | 27.86642 | -82.71557 | 266° | 51km/h | 24960m | 7.4m/s | -51.1°C | 0% | 0hPa | 0V | 00:00:00 | 00:00:00 | 00:00:00 | |
| ARGUS2 | 2026-09-04 12:38:58 | 27.86698 | -82.71219 | 263° | 64km/h | 24815m | 8.4m/s | -50.6°C | 0% | 0hPa | 0V | 00:00:00 | 00:00:00 | 00:00:00 | |
| ARGUS2 | 2026-09-04 12:38:37 | 27.86748 | -82.70891 | 254° | 64km/h | 24677m | 7.6m/s | -51.2°C | 0% | 0hPa | 0V | 00:00:00 | 00:00:00 | 00:00:00 | |
| ARGUS2 | 2026-09-04 12:38:17 | 27.86790 | -82.70569 | 278° | 53km/h | 24545m | 7.6m/s | -51.1°C | 0% | 0hPa | 0V | 00:00:00 | 00:00:00 | 00:00:00 | |
| ARGUS2 | 2026-09-04 12:37:55 | 27.86821 | -82.70234 | 266° | 66km/h | 24419m | 6.5m/s | -50.9°C | 0% | 0hPa | 0V | 00:00:00 | 00:00:00 | 00:00:00 | |
| ARGUS2 | 2026-09-04 12:37:35 | 27.86838 | -82.69931 | 282° | 66km/h | 24300m | 5.5m/s | -50.5°C | 0% | 0hPa | 0V | 00:00:00 | 00:00:00 | 00:00:00 | |
| ARGUS2 | 2026-09-04 12:37:14 | 27.86832 | -82.69602 | 262° | 51km/h | 24180m | 5.6m/s | -50.9°C | 0% | 0hPa | 0V | 00:00:00 | 00:00:00 | 00:00:00 | |
| ARGUS2 | 2026-09-04 12:36:54 | 27.86834 | -82.69243 | 274° | 69km/h | 24073m | 5.6m/s | -52.1°C | 0% | 0hPa | 0V | 00:00:00 | 00:00:00 | 00:00:00 | |
| ARGUS2 | 2026-09-04 12:36:34 | 27.86792 | -82.68802 | 274° | 95km/h | 23969m | 2.2m/s | -53.5°C | 0% | 0hPa | 0V | 00:00:00 | 00:00:00 | 00:00:00 | |
| ARGUS2 | 2026-09-04 12:36:13 | 27.86802 | -82.68400 | 270° | 78km/h | 23875m | 0.8m/s | -54.2°C | 0% | 0hPa | 0V | 00:00:00 | 00:00:00 | 00:00:00 | |
| ARGUS2 | 2026-09-04 12:35:52 | 27.86830 | -82.68061 | 271° | 68km/h | 23770m | 5.5m/s | -54.5°C | 0% | 0hPa | 0V | 00:00:00 | 00:00:00 | 00:00:00 | |
| ARGUS2 | 2026-09-04 12:35:32 | 27.86831 | -82.67740 | 262° | 46km/h | 23667m | 3.6m/s | -55.1°C | 0% | 0hPa | 0V | 00:00:00 | 00:00:00 | 00:00:00 | |
| ARGUS2 | 2026-09-04 12:35:12 | 27.86812 | -82.67384 | 284° | 68km/h | 23548m | 6.1m/s | -55.1°C | 0% | 0hPa | 0V | 00:00:00 | 00:00:00 | 00:00:00 | |
| ARGUS2 | 2026-09-04 12:34:30 | 27.86823 | -82.66708 | 260° | 53km/h | 23291m | 7.8m/s | -55.3°C | 0% | 0hPa | 0V | 00:00:00 | 00:00:00 | 00:00:00 | |
| ARGUS2 | 2026-09-04 12:34:10 | 27.86890 | -82.66415 | 269° | 57km/h | 23157m | 6.1m/s | -55.4°C | 0% | 0hPa | 0V | 00:00:00 | 00:00:00 | 00:00:00 | |
| ARGUS2 | 2026-09-04 12:33:50 | 27.86951 | -82.66077 | 263° | 69km/h | 23019m | 6.8m/s | -55.1°C | 0% | 0hPa | 0V | 00:00:00 | 00:00:00 | 00:00:00 | |
| ARGUS2 | 2026-09-04 12:33:29 | 27.87018 | -82.65806 | 240° | 38km/h | 22894m | 7.4m/s | -55.2°C | 0% | 0hPa | 0V | 00:00:00 | 00:00:00 | 00:00:00 | |
| ARGUS2 | 2026-09-04 12:33:09 | 27.87060 | -82.65598 | 247° | 35km/h | 22776m | 5.9m/s | -55.2°C | 0% | 0hPa | 0V | 00:00:00 | 00:00:00 | 00:00:00 | |
| ARGUS2 | 2026-09-04 12:32:47 | 27.87081 | -82.65355 | 275° | 37km/h | 22663m | 5.7m/s | -56.1°C | 0% | 0hPa | 0V | 00:00:00 | 00:00:00 | 00:00:00 | |
| ARGUS2 | 2026-09-04 12:32:27 | 27.87040 | -82.65155 | 272° | 33km/h | 22561m | 4.1m/s | -56.6°C | 0% | 0hPa | 0V | 00:00:00 | 00:00:00 | 00:00:00 | |
| ARGUS2 | 2026-09-04 12:32:06 | 27.87019 | -82.64921 | 279° | 51km/h | 22459m | 5.4m/s | -56.9°C | 0% | 0hPa | 0V | 00:00:00 | 00:00:00 | 00:00:00 | |
| ARGUS2 | 2026-09-04 12:31:46 | 27.86949 | -82.64692 | 309° | 44km/h | 22360m | 6.2m/s | -57.3°C | 0% | 0hPa | 0V | 00:00:00 | 00:00:00 | 00:00:00 | |
| ARGUS2 | 2026-09-04 12:31:25 | 27.86875 | -82.64474 | 282° | 35km/h | 22254m | 5.5m/s | -57.5°C | 0% | 0hPa | 0V | 00:00:00 | 00:00:00 | 00:00:00 | |
| ARGUS2 | 2026-09-04 12:31:04 | 27.86857 | -82.64213 | 285° | 18km/h | 22146m | 2.6m/s | -58.0°C | 0% | 0hPa | 0V | 00:00:00 | 00:00:00 | 00:00:00 | |
| ARGUS2 | 2026-09-04 12:30:43 | 27.86862 | -82.63959 | 242° | 33km/h | 22035m | 4.8m/s | -58.1°C | 0% | 0hPa | 0V | 00:00:00 | 00:00:00 | 00:00:00 | |
| ARGUS2 | 2026-09-04 12:30:22 | 27.86859 | -82.63754 | 319° | 31km/h | 21911m | 6.0m/s | -58.9°C | 0% | 0hPa | 0V | 00:00:00 | 00:00:00 | 00:00:00 | |
| ARGUS2 | 2026-09-04 12:30:02 | 27.86772 | -82.63540 | 298° | 31km/h | 21789m | 5.0m/s | -58.7°C | 0% | 0hPa | 0V | 00:00:00 | 00:00:00 | 00:00:00 | |
| ARGUS2 | 2026-09-04 12:29:41 | 27.86707 | -82.63332 | 293° | 42km/h | 21671m | 7.2m/s | -57.9°C | 0% | 0hPa | 0V | 00:00:00 | 00:00:00 | 00:00:00 | |
| ARGUS2 | 2026-09-04 12:29:21 | 27.86627 | -82.63092 | 293° | 42km/h | 21550m | 6.3m/s | -57.8°C | 0% | 0hPa | 0V | 00:00:00 | 00:00:00 | 00:00:00 | |
| ARGUS2 | 2026-09-04 12:29:00 | 27.86595 | -82.62856 | 272° | 53km/h | 21433m | 5.7m/s | -57.1°C | 0% | 0hPa | 0V | 00:00:00 | 00:00:00 | 00:00:00 | |
| ARGUS2 | 2026-09-04 12:28:39 | 27.86621 | -82.62606 | 273° | 40km/h | 21316m | 4.4m/s | -57.7°C | 0% | 0hPa | 0V | 00:00:00 | 00:00:00 | 00:00:00 | |
| ARGUS2 | 2026-09-04 12:28:19 | 27.86640 | -82.62385 | 276° | 31km/h | 21205m | 5.6m/s | -58.2°C | 0% | 0hPa | 0V | 00:00:00 | 00:00:00 | 00:00:00 | |
| ARGUS2 | 2026-09-04 12:27:59 | 27.86668 | -82.62154 | 257° | 44km/h | 21099m | 4.8m/s | -58.5°C | 0% | 0hPa | 0V | 00:00:00 | 00:00:00 | 00:00:00 | |
| ARGUS2 | 2026-09-04 12:27:38 | 27.86686 | -82.61942 | 264° | 37km/h | 21004m | 3.4m/s | -58.6°C | 0% | 0hPa | 0V | 00:00:00 | 00:00:00 | 00:00:00 | |
| ARGUS2 | 2026-09-04 12:27:18 | 27.86703 | -82.61696 | 274° | 46km/h | 20903m | 4.3m/s | -58.7°C | 0% | 0hPa | 0V | 00:00:00 | 00:00:00 | 00:00:00 | |
| ARGUS2 | 2026-09-04 12:26:57 | 27.86718 | -82.61471 | 276° | 47km/h | 20802m | 6.8m/s | -59.2°C | 0% | 0hPa | 0V | 00:00:00 | 00:00:00 | 00:00:00 | |
| ARGUS2 | 2026-09-04 12:26:37 | 27.86698 | -82.61253 | 288° | 27km/h | 20692m | 6.3m/s | -59.7°C | 0% | 0hPa | 0V | 00:00:00 | 00:00:00 | 00:00:00 | |
| ARGUS2 | 2026-09-04 12:26:16 | 27.86623 | -82.61068 | 308° | 42km/h | 20585m | 5.4m/s | -60.5°C | 0% | 0hPa | 0V | 00:00:00 | 00:00:00 | 00:00:00 | |
| ARGUS2 | 2026-09-04 12:25:56 | 27.86560 | -82.60871 | 282° | 26km/h | 20467m | 5.9m/s | -60.3°C | 0% | 0hPa | 0V | 00:00:00 | 00:00:00 | 00:00:00 | |
| ARGUS2 | 2026-09-04 12:25:34 | 27.86549 | -82.60693 | 256° | 40km/h | 20350m | 4.6m/s | -60.6°C | 0% | 0hPa | 0V | 00:00:00 | 00:00:00 | 00:00:00 | |
| ARGUS2 | 2026-09-04 12:25:14 | 27.86597 | -82.60547 | 260° | 29km/h | 20232m | 6.7m/s | -60.8°C | 0% | 0hPa | 0V | 00:00:00 | 00:00:00 | 00:00:00 | |
| ARGUS2 | 2026-09-04 12:24:54 | 27.86637 | -82.60419 | 260° | 16km/h | 20109m | 3.6m/s | -60.6°C | 0% | 0hPa | 0V | 00:00:00 | 00:00:00 | 00:00:00 | |
| ARGUS2 | 2026-09-04 12:24:33 | 27.86662 | -82.60307 | 259° | 27km/h | 19997m | 4.9m/s | -60.4°C | 0% | 0hPa | 0V | 00:00:00 | 00:00:00 | 00:00:00 | |
| ARGUS2 | 2026-09-04 12:24:12 | 27.86676 | -82.60134 | 253° | 31km/h | 19884m | 4.6m/s | -60.5°C | 0% | 0hPa | 0V | 00:00:00 | 00:00:00 | 00:00:00 | |
| ARGUS2 | 2026-09-04 12:23:52 | 27.86727 | -82.59971 | 242° | 24km/h | 19777m | 5.7m/s | -60.7°C | 0% | 0hPa | 0V | 00:00:00 | 00:00:00 | 00:00:00 | |
| ARGUS2 | 2026-09-04 12:23:32 | 27.86804 | -82.59879 | 210° | 24km/h | 19675m | 4.7m/s | -61.6°C | 0% | 0hPa | 0V | 00:00:00 | 00:00:00 | 00:00:00 | |
| ARGUS2 | 2026-09-04 12:23:11 | 27.86838 | -82.59831 | 113° | 2km/h | 19578m | 6.2m/s | -62.0°C | 0% | 0hPa | 0V | 00:00:00 | 00:00:00 | 00:00:00 | |
| ARGUS2 | 2026-09-04 12:22:51 | 27.86849 | -82.59780 | 307° | 11km/h | 19480m | 5.3m/s | -63.5°C | 0% | 0hPa | 0V | 00:00:00 | 00:00:00 | 00:00:00 | |
| ARGUS2 | 2026-09-04 12:22:30 | 27.86803 | -82.59677 | 284° | 24km/h | 19383m | 4.3m/s | -64.3°C | 0% | 0hPa | 0V | 00:00:00 | 00:00:00 | 00:00:00 | |
| ARGUS2 | 2026-09-04 12:22:10 | 27.86759 | -82.59551 | 259° | 29km/h | 19276m | 5.4m/s | -65.1°C | 0% | 0hPa | 0V | 00:00:00 | 00:00:00 | 00:00:00 | |
| ARGUS2 | 2026-09-04 12:21:49 | 27.86745 | -82.59426 | 265° | 18km/h | 19171m | 5.2m/s | -65.7°C | 0% | 0hPa | 0V | 00:00:00 | 00:00:00 | 00:00:00 | |
| ARGUS2 | 2026-09-04 12:21:29 | 27.86702 | -82.59339 | 335° | 24km/h | 19056m | 5.2m/s | -66.3°C | 0% | 0hPa | 0V | 00:00:00 | 00:00:00 | 00:00:00 | |
| ARGUS2 | 2026-09-04 12:21:08 | 27.86610 | -82.59231 | 298° | 27km/h | 18949m | 6.6m/s | -66.3°C | 0% | 0hPa | 0V | 00:00:00 | 00:00:00 | 00:00:00 | |
| ARGUS2 | 2026-09-04 12:20:48 | 27.86527 | -82.59055 | 299° | 37km/h | 18831m | 6.9m/s | -66.0°C | 0% | 0hPa | 0V | 00:00:00 | 00:00:00 | 00:00:00 | |
| ARGUS2 | 2026-09-04 12:20:26 | 27.86487 | -82.58817 | 259° | 47km/h | 18699m | 6.4m/s | -66.1°C | 0% | 0hPa | 0V | 00:00:00 | 00:00:00 | 00:00:00 | |
| ARGUS2 | 2026-09-04 12:20:06 | 27.86521 | -82.58565 | 254° | 55km/h | 18579m | 5.3m/s | -66.4°C | 0% | 0hPa | 0V | 00:00:00 | 00:00:00 | 00:00:00 | |
| ARGUS2 | 2026-09-04 12:19:45 | 27.86580 | -82.58328 | 235° | 40km/h | 18457m | 4.5m/s | -66.7°C | 0% | 0hPa | 0V | 00:00:00 | 00:00:00 | 00:00:00 | |
| ARGUS2 | 2026-09-04 12:19:25 | 27.86624 | -82.58139 | 251° | 26km/h | 18348m | 3.8m/s | -66.9°C | 0% | 0hPa | 0V | 00:00:00 | 00:00:00 | 00:00:00 | |
| ARGUS2 | 2026-09-04 12:19:05 | 27.86682 | -82.57972 | 244° | 29km/h | 18239m | 5.3m/s | -67.1°C | 0% | 0hPa | 0V | 00:00:00 | 00:00:00 | 00:00:00 | |
| ARGUS2 | 2026-09-04 12:18:44 | 27.86706 | -82.57864 | 265° | 26km/h | 18136m | 4.5m/s | -66.7°C | 0% | 0hPa | 0V | 00:00:00 | 00:00:00 | 00:00:00 | |
| ARGUS2 | 2026-09-04 12:18:24 | 27.86702 | -82.57738 | 294° | 31km/h | 18030m | 4.4m/s | -67.5°C | 0% | 0hPa | 0V | 00:00:00 | 00:00:00 | 00:00:00 | |
| ARGUS2 | 2026-09-04 12:18:03 | 27.86666 | -82.57588 | 252° | 26km/h | 17930m | 5.7m/s | -68.1°C | 0% | 0hPa | 0V | 00:00:00 | 00:00:00 | 00:00:00 | |
| ARGUS2 | 2026-09-04 12:17:43 | 27.86696 | -82.57354 | 256° | 51km/h | 17822m | 6.5m/s | -68.9°C | 0% | 0hPa | 0V | 00:00:00 | 00:00:00 | 00:00:00 | |
| ARGUS2 | 2026-09-04 12:17:22 | 27.86789 | -82.57101 | 236° | 44km/h | 17724m | 4.8m/s | -69.5°C | 0% | 0hPa | 0V | 00:00:00 | 00:00:00 | 00:00:00 | |
| ARGUS2 | 2026-09-04 12:16:41 | 27.87065 | -82.56738 | 223° | 40km/h | 17503m | 4.0m/s | -69.0°C | 0% | 0hPa | 0V | 00:00:00 | 00:00:00 | 00:00:00 | |
| ARGUS2 | 2026-09-04 12:16:21 | 27.87189 | -82.56640 | 218° | 26km/h | 17395m | 5.4m/s | -69.0°C | 0% | 0hPa | 0V | 00:00:00 | 00:00:00 | 00:00:00 | |
| ARGUS2 | 2026-09-04 12:16:00 | 27.87282 | -82.56567 | 226° | 24km/h | 17289m | 6.2m/s | -69.8°C | 0% | 0hPa | 0V | 00:00:00 | 00:00:00 | 00:00:00 | |
| ARGUS2 | 2026-09-04 12:15:40 | 27.87353 | -82.56458 | 229° | 18km/h | 17169m | 5.7m/s | -69.7°C | 0% | 0hPa | 0V | 00:00:00 | 00:00:00 | 00:00:00 | |
| ARGUS2 | 2026-09-04 12:15:18 | 27.87430 | -82.56269 | 256° | 44km/h | 17057m | 5.1m/s | -70.7°C | 0% | 0hPa | 0V | 00:00:00 | 00:00:00 | 00:00:00 | |
| ARGUS2 | 2026-09-04 12:14:58 | 27.87456 | -82.56031 | 277° | 40km/h | 16951m | 6.4m/s | -70.5°C | 0% | 0hPa | 0V | 00:00:00 | 00:00:00 | 00:00:00 | |
| ARGUS2 | 2026-09-04 12:14:37 | 27.87459 | -82.55766 | 265° | 46km/h | 16842m | 5.2m/s | -70.7°C | 0% | 0hPa | 0V | 00:00:00 | 00:00:00 | 00:00:00 | |
| ARGUS2 | 2026-09-04 12:14:17 | 27.87509 | -82.55547 | 252° | 40km/h | 16739m | 6.1m/s | -71.6°C | 0% | 0hPa | 0V | 00:00:00 | 00:00:00 | 00:00:00 | |
| ARGUS2 | 2026-09-04 12:13:56 | 27.87577 | -82.55336 | 249° | 38km/h | 16628m | 4.5m/s | -71.8°C | 0% | 0hPa | 0V | 00:00:00 | 00:00:00 | 00:00:00 | |
| ARGUS2 | 2026-09-04 12:13:36 | 27.87636 | -82.55130 | 256° | 40km/h | 16528m | 5.4m/s | -71.5°C | 0% | 0hPa | 0V | 00:00:00 | 00:00:00 | 00:00:00 | |
| ARGUS2 | 2026-09-04 12:13:16 | 27.87690 | -82.54919 | 261° | 42km/h | 16422m | 5.7m/s | -71.4°C | 0% | 0hPa | 0V | 00:00:00 | 00:00:00 | 00:00:00 | |
| ARGUS2 | 2026-09-04 12:12:55 | 27.87749 | -82.54741 | 260° | 26km/h | 16320m | 5.3m/s | -71.1°C | 0% | 0hPa | 0V | 00:00:00 | 00:00:00 | 00:00:00 | |
| ARGUS2 | 2026-09-04 12:12:35 | 27.87768 | -82.54575 | 273° | 22km/h | 16214m | 4.8m/s | -70.7°C | 0% | 0hPa | 0V | 00:00:00 | 00:00:00 | 00:00:00 | |
| ARGUS2 | 2026-09-04 12:12:14 | 27.87768 | -82.54398 | 255° | 22km/h | 16116m | 5.1m/s | -69.9°C | 0% | 0hPa | 0V | 00:00:00 | 00:00:00 | 00:00:00 | |
| ARGUS2 | 2026-09-04 12:11:54 | 27.87780 | -82.54212 | 268° | 29km/h | 16010m | 5.8m/s | -69.1°C | 0% | 0hPa | 0V | 00:00:00 | 00:00:00 | 00:00:00 | |
| ARGUS2 | 2026-09-04 12:11:33 | 27.87774 | -82.54045 | 276° | 26km/h | 15909m | 6.1m/s | -68.6°C | 0% | 0hPa | 0V | 00:00:00 | 00:00:00 | 00:00:00 | |
| ARGUS2 | 2026-09-04 12:11:13 | 27.87740 | -82.53890 | 285° | 29km/h | 15805m | 4.1m/s | -68.3°C | 0% | 0hPa | 0V | 00:00:00 | 00:00:00 | 00:00:00 | |
| ARGUS2 | 2026-09-04 12:10:52 | 27.87686 | -82.53735 | 287° | 38km/h | 15704m | 4.2m/s | -68.5°C | 0% | 0hPa | 0V | 00:00:00 | 00:00:00 | 00:00:00 | |
| ARGUS2 | 2026-09-04 12:10:32 | 27.87572 | -82.53560 | 311° | 37km/h | 15600m | 5.9m/s | -68.5°C | 0% | 0hPa | 0V | 00:00:00 | 00:00:00 | 00:00:00 | |
| ARGUS2 | 2026-09-04 12:10:11 | 27.87456 | -82.53374 | 303° | 49km/h | 15501m | 5.6m/s | -68.4°C | 0% | 0hPa | 0V | 00:00:00 | 00:00:00 | 00:00:00 | |
| ARGUS2 | 2026-09-04 12:09:51 | 27.87349 | -82.53146 | 287° | 47km/h | 15395m | 5.0m/s | -68.0°C | 0% | 0hPa | 0V | 00:00:00 | 00:00:00 | 00:00:00 | |
| ARGUS2 | 2026-09-04 12:09:29 | 27.87260 | -82.52889 | 289° | 38km/h | 15288m | 3.8m/s | -67.4°C | 0% | 0hPa | 0V | 00:00:00 | 00:00:00 | 00:00:00 | |
| ARGUS2 | 2026-09-04 12:09:10 | 27.87208 | -82.52634 | 281° | 42km/h | 15184m | 4.3m/s | -66.7°C | 0% | 0hPa | 0V | 00:00:00 | 00:00:00 | 00:00:00 | |
| ARGUS2 | 2026-09-04 12:08:48 | 27.87171 | -82.52363 | 302° | 33km/h | 15069m | 3.9m/s | -65.9°C | 0% | 0hPa | 0V | 00:00:00 | 00:00:00 | 00:00:00 | |
| ARGUS2 | 2026-09-04 12:08:28 | 27.87124 | -82.52137 | 284° | 42km/h | 14958m | 5.2m/s | -67.0°C | 0% | 0hPa | 0V | 00:00:00 | 00:00:00 | 00:00:00 | |
| ARGUS2 | 2026-09-04 12:08:08 | 27.87051 | -82.51887 | 295° | 37km/h | 14853m | 6.1m/s | -67.4°C | 0% | 0hPa | 0V | 00:00:00 | 00:00:00 | 00:00:00 | |
| ARGUS2 | 2026-09-04 12:07:47 | 27.86995 | -82.51652 | 284° | 42km/h | 14754m | 4.4m/s | -66.8°C | 0% | 0hPa | 0V | 00:00:00 | 00:00:00 | 00:00:00 | |
| ARGUS2 | 2026-09-04 12:07:26 | 27.86954 | -82.51398 | 274° | 46km/h | 14648m | 3.7m/s | -66.3°C | 0% | 0hPa | 0V | 00:00:00 | 00:00:00 | 00:00:00 | |
| ARGUS2 | 2026-09-04 12:07:06 | 27.86923 | -82.51140 | 272° | 49km/h | 14554m | 3.2m/s | -65.7°C | 0% | 0hPa | 0V | 00:00:00 | 00:00:00 | 00:00:00 | |
| ARGUS2 | 2026-09-04 12:06:46 | 27.86909 | -82.50864 | 272° | 46km/h | 14456m | 5.1m/s | -65.5°C | 0% | 0hPa | 0V | 00:00:00 | 00:00:00 | 00:00:00 | |
| ARGUS2 | 2026-09-04 12:06:25 | 27.86888 | -82.50593 | 265° | 53km/h | 14360m | 4.8m/s | -65.0°C | 0% | 0hPa | 0V | 00:00:00 | 00:00:00 | 00:00:00 | |
| ARGUS2 | 2026-09-04 12:06:05 | 27.86842 | -82.50314 | 287° | 38km/h | 14247m | 5.6m/s | -64.6°C | 0% | 0hPa | 0V | 00:00:00 | 00:00:00 | 00:00:00 | |
| ARGUS2 | 2026-09-04 12:05:44 | 27.86751 | -82.50060 | 284° | 46km/h | 14144m | 3.6m/s | -63.7°C | 0% | 0hPa | 0V | 00:00:00 | 00:00:00 | 00:00:00 | |
| ARGUS2 | 2026-09-04 12:05:24 | 27.86650 | -82.49799 | 300° | 46km/h | 14047m | 3.3m/s | -62.9°C | 0% | 0hPa | 0V | 00:00:00 | 00:00:00 | 00:00:00 | |
| ARGUS2 | 2026-09-04 12:05:03 | 27.86568 | -82.49553 | 292° | 46km/h | 13935m | 4.1m/s | -62.2°C | 0% | 0hPa | 0V | 00:00:00 | 00:00:00 | 00:00:00 | |
| ARGUS2 | 2026-09-04 12:04:43 | 27.86452 | -82.49274 | 296° | 49km/h | 13819m | 7.0m/s | -61.2°C | 0% | 0hPa | 0V | 00:00:00 | 00:00:00 | 00:00:00 | |
| ARGUS2 | 2026-09-04 12:04:21 | 27.86322 | -82.48991 | 303° | 57km/h | 13703m | 6.8m/s | -60.3°C | 0% | 0hPa | 0V | 00:00:00 | 00:00:00 | 00:00:00 | |
| ARGUS2 | 2026-09-04 12:04:01 | 27.86199 | -82.48734 | 303° | 60km/h | 13599m | 2.3m/s | -59.3°C | 0% | 0hPa | 0V | 00:00:00 | 00:00:00 | 00:00:00 | |
| ARGUS2 | 2026-09-04 12:03:40 | 27.86083 | -82.48473 | 307° | 51km/h | 13484m | 6.8m/s | -58.3°C | 0% | 0hPa | 0V | 00:00:00 | 00:00:00 | 00:00:00 | |
| ARGUS2 | 2026-09-04 12:03:20 | 27.85967 | -82.48234 | 304° | 53km/h | 13385m | 4.4m/s | -57.4°C | 0% | 0hPa | 0V | 00:00:00 | 00:00:00 | 00:00:00 | |
| ARGUS2 | 2026-09-04 12:03:00 | 27.85844 | -82.47992 | 307° | 49km/h | 13283m | 3.6m/s | -56.5°C | 0% | 0hPa | 0V | 00:00:00 | 00:00:00 | 00:00:00 | |
| ARGUS2 | 2026-09-04 12:02:39 | 27.85726 | -82.47765 | 308° | 40km/h | 13188m | 5.4m/s | -55.7°C | 0% | 0hPa | 0V | 00:00:00 | 00:00:00 | 00:00:00 | |
| ARGUS2 | 2026-09-04 12:02:18 | 27.85606 | -82.47543 | 295° | 42km/h | 13084m | 5.8m/s | -54.9°C | 0% | 0hPa | 0V | 00:00:00 | 00:00:00 | 00:00:00 | |
| ARGUS2 | 2026-09-04 12:01:58 | 27.85488 | -82.47337 | 295° | 33km/h | 12981m | 3.9m/s | -54.1°C | 0% | 0hPa | 0V | 00:00:00 | 00:00:00 | 00:00:00 | |
| ARGUS2 | 2026-09-04 12:01:38 | 27.85352 | -82.47138 | 301° | 46km/h | 12874m | 5.6m/s | -53.2°C | 0% | 0hPa | 0V | 00:00:00 | 00:00:00 | 00:00:00 | |
| ARGUS2 | 2026-09-04 12:01:17 | 27.85221 | -82.46958 | 309° | 42km/h | 12771m | 6.3m/s | -52.2°C | 0% | 0hPa | 0V | 00:00:00 | 00:00:00 | 00:00:00 | |
| ARGUS2 | 2026-09-04 12:00:57 | 27.85078 | -82.46756 | 312° | 40km/h | 12661m | 3.6m/s | -51.3°C | 0% | 0hPa | 0V | 00:00:00 | 00:00:00 | 00:00:00 | |
| ARGUS2 | 2026-09-04 12:00:36 | 27.84931 | -82.46568 | 313° | 47km/h | 12553m | 6.8m/s | -50.7°C | 0% | 0hPa | 0V | 00:00:00 | 00:00:00 | 00:00:00 | |
| ARGUS2 | 2026-09-04 12:00:16 | 27.84778 | -82.46346 | 306° | 49km/h | 12443m | 4.5m/s | -50.1°C | 0% | 0hPa | 0V | 00:00:00 | 00:00:00 | 00:00:00 | |
| ARGUS2 | 2026-09-04 11:59:35 | 27.84532 | -82.45869 | 292° | 49km/h | 12225m | 5.5m/s | -48.5°C | 0% | 0hPa | 0V | 00:00:00 | 00:00:00 | 00:00:00 | |
| ARGUS2 | 2026-09-04 11:58:53 | 27.84299 | -82.45396 | 309° | 46km/h | 12021m | 5.1m/s | -46.8°C | 0% | 0hPa | 0V | 00:00:00 | 00:00:00 | 00:00:00 | |
| ARGUS2 | 2026-09-04 11:58:33 | 27.84155 | -82.45148 | 298° | 47km/h | 11925m | 3.8m/s | -46.1°C | 0% | 0hPa | 0V | 00:00:00 | 00:00:00 | 00:00:00 | |
| ARGUS2 | 2026-09-04 11:58:12 | 27.84030 | -82.44919 | 304° | 44km/h | 11826m | 6.4m/s | -45.7°C | 0% | 0hPa | 0V | 00:00:00 | 00:00:00 | 00:00:00 | |
| ARGUS2 | 2026-09-04 11:57:51 | 27.83881 | -82.44663 | 308° | 51km/h | 11723m | 5.5m/s | -44.9°C | 0% | 0hPa | 0V | 00:00:00 | 00:00:00 | 00:00:00 | |
| ARGUS2 | 2026-09-04 11:57:31 | 27.83730 | -82.44410 | 303° | 47km/h | 11637m | 5.2m/s | -44.2°C | 0% | 0hPa | 0V | 00:00:00 | 00:00:00 | 00:00:00 | |
| ARGUS2 | 2026-09-04 11:57:10 | 27.83571 | -82.44154 | 303° | 47km/h | 11547m | 5.0m/s | -43.5°C | 0% | 0hPa | 0V | 00:00:00 | 00:00:00 | 00:00:00 | |
| ARGUS2 | 2026-09-04 11:56:50 | 27.83418 | -82.43918 | 306° | 49km/h | 11458m | 4.3m/s | -42.7°C | 0% | 0hPa | 0V | 00:00:00 | 00:00:00 | 00:00:00 | |
| ARGUS2 | 2026-09-04 11:56:30 | 27.83273 | -82.43660 | 303° | 55km/h | 11366m | 3.1m/s | -42.0°C | 0% | 0hPa | 0V | 00:00:00 | 00:00:00 | 00:00:00 | |
| ARGUS2 | 2026-09-04 11:56:09 | 27.83143 | -82.43423 | 310° | 44km/h | 11280m | 3.8m/s | -41.5°C | 0% | 0hPa | 0V | 00:00:00 | 00:00:00 | 00:00:00 | |
| ARGUS2 | 2026-09-04 11:55:49 | 27.83018 | -82.43178 | 310° | 44km/h | 11195m | 3.6m/s | -40.9°C | 0% | 0hPa | 0V | 00:00:00 | 00:00:00 | 00:00:00 | |
| ARGUS2 | 2026-09-04 11:55:28 | 27.82907 | -82.42956 | 295° | 42km/h | 11116m | 4.7m/s | -40.3°C | 0% | 0hPa | 0V | 00:00:00 | 00:00:00 | 00:00:00 | |
| ARGUS2 | 2026-09-04 11:55:08 | 27.82795 | -82.42728 | 304° | 38km/h | 11032m | 3.3m/s | -39.7°C | 0% | 0hPa | 0V | 00:00:00 | 00:00:00 | 00:00:00 | |
| ARGUS2 | 2026-09-04 11:54:47 | 27.82690 | -82.42502 | 287° | 42km/h | 10948m | 3.7m/s | -39.1°C | 0% | 0hPa | 0V | 00:00:00 | 00:00:00 | 00:00:00 | |
| ARGUS2 | 2026-09-04 11:54:27 | 27.82575 | -82.42269 | 297° | 51km/h | 10859m | 3.2m/s | -38.8°C | 0% | 0hPa | 0V | 00:00:00 | 00:00:00 | 00:00:00 | |
| ARGUS2 | 2026-09-04 11:54:06 | 27.82453 | -82.42051 | 293° | 44km/h | 10775m | 2.9m/s | -38.2°C | 0% | 0hPa | 0V | 00:00:00 | 00:00:00 | 00:00:00 | |
| ARGUS2 | 2026-09-04 11:53:46 | 27.82317 | -82.41828 | 312° | 46km/h | 10680m | 5.3m/s | -37.6°C | 0% | 0hPa | 0V | 00:00:00 | 00:00:00 | 00:00:00 | |
| ARGUS2 | 2026-09-04 11:53:24 | 27.82160 | -82.41634 | 316° | 40km/h | 10590m | 4.5m/s | -36.8°C | 0% | 0hPa | 0V | 00:00:00 | 00:00:00 | 00:00:00 | |
| ARGUS2 | 2026-09-04 11:53:04 | 27.82014 | -82.41444 | 309° | 47km/h | 10503m | 4.4m/s | -36.0°C | 0% | 0hPa | 0V | 00:00:00 | 00:00:00 | 00:00:00 | |
| ARGUS2 | 2026-09-04 11:52:43 | 27.81870 | -82.41235 | 304° | 51km/h | 10396m | 5.4m/s | -35.2°C | 0% | 0hPa | 0V | 00:00:00 | 00:00:00 | 00:00:00 | |
| ARGUS2 | 2026-09-04 11:51:42 | 27.81363 | -82.40764 | 343° | 49km/h | 10098m | 5.7m/s | -33.1°C | 0% | 0hPa | 0V | 00:00:00 | 00:00:00 | 00:00:00 | |
| ARGUS2 | 2026-09-04 11:51:22 | 27.81184 | -82.40658 | 329° | 29km/h | 10000m | 4.2m/s | -32.4°C | 0% | 0hPa | 0V | 00:00:00 | 00:00:00 | 00:00:00 | |
| ARGUS2 | 2026-09-04 11:50:41 | 27.80858 | -82.40427 | 323° | 31km/h | 9810m | 5.6m/s | -30.9°C | 0% | 0hPa | 0V | 00:00:00 | 00:00:00 | 00:00:00 | |
| ARGUS2 | 2026-09-04 11:50:20 | 27.80705 | -82.40311 | 322° | 29km/h | 9716m | 5.3m/s | -30.0°C | 0% | 0hPa | 0V | 00:00:00 | 00:00:00 | 00:00:00 | |
| ARGUS2 | 2026-09-04 11:50:00 | 27.80552 | -82.40192 | 329° | 26km/h | 9617m | 4.6m/s | -29.3°C | 0% | 0hPa | 0V | 00:00:00 | 00:00:00 | 00:00:00 | |
| ARGUS2 | 2026-09-04 11:49:39 | 27.80424 | -82.40056 | 320° | 37km/h | 9527m | 5.3m/s | -28.6°C | 0% | 0hPa | 0V | 00:00:00 | 00:00:00 | 00:00:00 | |
| ARGUS2 | 2026-09-04 11:49:19 | 27.80287 | -82.39908 | 325° | 35km/h | 9425m | 6.6m/s | -27.7°C | 0% | 0hPa | 0V | 00:00:00 | 00:00:00 | 00:00:00 | |
| ARGUS2 | 2026-09-04 11:48:58 | 27.80151 | -82.39768 | 328° | 38km/h | 9316m | 5.6m/s | -26.9°C | 0% | 0hPa | 0V | 00:00:00 | 00:00:00 | 00:00:00 | |
| ARGUS2 | 2026-09-04 11:48:38 | 27.79987 | -82.39640 | 332° | 35km/h | 9222m | 5.2m/s | -26.1°C | 0% | 0hPa | 0V | 00:00:00 | 00:00:00 | 00:00:00 | |
| ARGUS2 | 2026-09-04 11:48:16 | 27.79824 | -82.39518 | 336° | 37km/h | 9122m | 3.1m/s | -25.3°C | 0% | 0hPa | 0V | 00:00:00 | 00:00:00 | 00:00:00 | |
| ARGUS2 | 2026-09-04 11:47:56 | 27.79676 | -82.39410 | 352° | 22km/h | 9039m | 4.1m/s | -24.9°C | 0% | 0hPa | 0V | 00:00:00 | 00:00:00 | 00:00:00 | |
| ARGUS2 | 2026-09-04 11:47:35 | 27.79497 | -82.39311 | 335° | 37km/h | 8940m | 4.8m/s | -24.1°C | 0% | 0hPa | 0V | 00:00:00 | 00:00:00 | 00:00:00 | |
| ARGUS2 | 2026-09-04 11:47:15 | 27.79325 | -82.39218 | 323° | 44km/h | 8855m | 3.8m/s | -23.7°C | 0% | 0hPa | 0V | 00:00:00 | 00:00:00 | 00:00:00 | |
| ARGUS2 | 2026-09-04 11:46:55 | 27.79161 | -82.39108 | 322° | 29km/h | 8761m | 3.5m/s | -23.0°C | 0% | 0hPa | 0V | 00:00:00 | 00:00:00 | 00:00:00 | |
| ARGUS2 | 2026-09-04 11:46:14 | 27.78855 | -82.38909 | 333° | 33km/h | 8582m | 3.6m/s | -21.6°C | 0% | 0hPa | 0V | 00:00:00 | 00:00:00 | 00:00:00 | |
| ARGUS2 | 2026-09-04 11:45:53 | 27.78707 | -82.38842 | 350° | 35km/h | 8493m | 5.7m/s | -21.1°C | 0% | 0hPa | 0V | 00:00:00 | 00:00:00 | 00:00:00 | |
| ARGUS2 | 2026-09-04 11:45:33 | 27.78558 | -82.38779 | 343° | 31km/h | 8398m | 4.6m/s | -21.1°C | 0% | 0hPa | 0V | 00:00:00 | 00:00:00 | 00:00:00 | |
| ARGUS2 | 2026-09-04 11:45:12 | 27.78424 | -82.38730 | 347° | 33km/h | 8309m | 3.5m/s | -20.6°C | 0% | 0hPa | 0V | 00:00:00 | 00:00:00 | 00:00:00 | |
| ARGUS2 | 2026-09-04 11:44:52 | 27.78274 | -82.38676 | 352° | 33km/h | 8211m | 3.9m/s | -20.0°C | 0% | 0hPa | 0V | 00:00:00 | 00:00:00 | 00:00:00 | |
| ARGUS2 | 2026-09-04 11:44:31 | 27.78132 | -82.38638 | 355° | 31km/h | 8113m | 5.1m/s | -19.3°C | 0% | 0hPa | 0V | 00:00:00 | 00:00:00 | 00:00:00 | |
| ARGUS2 | 2026-09-04 11:43:51 | 27.77846 | -82.38582 | 347° | 24km/h | 7920m | 6.0m/s | -17.8°C | 0% | 0hPa | 0V | 00:00:00 | 00:00:00 | 00:00:00 | |
| ARGUS2 | 2026-09-04 11:43:30 | 27.77693 | -82.38567 | 11° | 16km/h | 7817m | 3.9m/s | -17.0°C | 0% | 0hPa | 0V | 00:00:00 | 00:00:00 | 00:00:00 | |
| ARGUS2 | 2026-09-04 11:43:09 | 27.77524 | -82.38580 | 7° | 37km/h | 7709m | 4.9m/s | -16.2°C | 0% | 0hPa | 0V | 00:00:00 | 00:00:00 | 00:00:00 | |
| ARGUS2 | 2026-09-04 11:42:49 | 27.77392 | -82.38542 | 334° | 29km/h | 7571m | 5.6m/s | -15.0°C | 0% | 0hPa | 0V | 00:00:00 | 00:00:00 | 00:00:00 | |
| ARGUS2 | 2026-09-04 11:42:27 | 27.77269 | -82.38470 | 316° | 27km/h | 7469m | 4.6m/s | -14.3°C | 0% | 0hPa | 0V | 00:00:00 | 00:00:00 | 00:00:00 | |
| ARGUS2 | 2026-09-04 11:42:07 | 27.77166 | -82.38405 | 337° | 22km/h | 7370m | 5.6m/s | -14.1°C | 0% | 0hPa | 0V | 00:00:00 | 00:00:00 | 00:00:00 | |
| ARGUS2 | 2026-09-04 11:41:47 | 27.77063 | -82.38342 | 356° | 16km/h | 7267m | 5.7m/s | -13.3°C | 0% | 0hPa | 0V | 00:00:00 | 00:00:00 | 00:00:00 | |
| ARGUS2 | 2026-09-04 11:41:26 | 27.76973 | -82.38279 | 318° | 27km/h | 7172m | 5.8m/s | -12.7°C | 0% | 0hPa | 0V | 00:00:00 | 00:00:00 | 00:00:00 | |
| ARGUS2 | 2026-09-04 11:41:06 | 27.76861 | -82.38237 | 333° | 18km/h | 7057m | 4.7m/s | -12.0°C | 0% | 0hPa | 0V | 00:00:00 | 00:00:00 | 00:00:00 | |
| ARGUS2 | 2026-09-04 11:40:45 | 27.76761 | -82.38194 | 294° | 24km/h | 6958m | 6.4m/s | -11.9°C | 0% | 0hPa | 0V | 00:00:00 | 00:00:00 | 00:00:00 | |
| ARGUS2 | 2026-09-04 11:40:24 | 27.76637 | -82.38168 | 44° | 26km/h | 6835m | 6.5m/s | -11.4°C | 0% | 0hPa | 0V | 00:00:00 | 00:00:00 | 00:00:00 | |
| ARGUS2 | 2026-09-04 11:40:03 | 27.76530 | -82.38164 | 350° | 26km/h | 6705m | 3.3m/s | -10.4°C | 0% | 0hPa | 0V | 00:00:00 | 00:00:00 | 00:00:00 | |
| ARGUS2 | 2026-09-04 11:39:03 | 27.76142 | -82.38198 | 296° | 13km/h | 6406m | 4.2m/s | -8.9°C | 0% | 0hPa | 0V | 00:00:00 | 00:00:00 | 00:00:00 | |
| ARGUS2 | 2026-09-04 11:38:42 | 27.76046 | -82.38190 | 348° | 20km/h | 6303m | 4.7m/s | -8.4°C | 0% | 0hPa | 0V | 00:00:00 | 00:00:00 | 00:00:00 | |
| ARGUS2 | 2026-09-04 11:38:22 | 27.75940 | -82.38177 | 13° | 31km/h | 6205m | 4.8m/s | -7.8°C | 0% | 0hPa | 0V | 00:00:00 | 00:00:00 | 00:00:00 | |
| ARGUS2 | 2026-09-04 11:38:01 | 27.75861 | -82.38207 | 358° | 26km/h | 6089m | 4.6m/s | -7.6°C | 0% | 0hPa | 0V | 00:00:00 | 00:00:00 | 00:00:00 | |
| ARGUS2 | 2026-09-04 11:37:41 | 27.75765 | -82.38229 | 358° | 24km/h | 5982m | 8.2m/s | -6.8°C | 0% | 0hPa | 0V | 00:00:00 | 00:00:00 | 00:00:00 | |
| ARGUS2 | 2026-09-04 11:37:19 | 27.75684 | -82.38234 | 359° | 29km/h | 5844m | 6.1m/s | -5.8°C | 0% | 0hPa | 0V | 00:00:00 | 00:00:00 | 00:00:00 | |
| ARGUS2 | 2026-09-04 11:36:59 | 27.75605 | -82.38242 | 332° | 29km/h | 5752m | 5.6m/s | -5.2°C | 0% | 0hPa | 0V | 00:00:00 | 00:00:00 | 00:00:00 | |
| ARGUS2 | 2026-09-04 11:36:39 | 27.75500 | -82.38286 | 60° | 27km/h | 5631m | 5.4m/s | -4.2°C | 0% | 0hPa | 0V | 00:00:00 | 00:00:00 | 00:00:00 | |
| ARGUS2 | 2026-09-04 11:36:18 | 27.75416 | -82.38336 | 358° | 29km/h | 5520m | 4.0m/s | -3.5°C | 0% | 0hPa | 0V | 00:00:00 | 00:00:00 | 00:00:00 | |
| ARGUS2 | 2026-09-04 11:35:57 | 27.75348 | -82.38367 | 62° | 26km/h | 5403m | 6.0m/s | -2.7°C | 0% | 0hPa | 0V | 00:00:00 | 00:00:00 | 00:00:00 | |
| ARGUS2 | 2026-09-04 11:35:38 | 27.75264 | -82.38395 | 42° | 35km/h | 5290m | 6.6m/s | -2.0°C | 0% | 0hPa | 0V | 00:00:00 | 00:00:00 | 00:00:00 | |
| ARGUS2 | 2026-09-04 11:35:16 | 27.75173 | -82.38444 | 9° | 26km/h | 5171m | 6.1m/s | -1.2°C | 0% | 0hPa | 0V | 00:00:00 | 00:00:00 | 00:00:00 | |
| ARGUS2 | 2026-09-04 11:34:56 | 27.75094 | -82.38469 | 3° | 40km/h | 5061m | 6.4m/s | -0.8°C | 0% | 0hPa | 0V | 00:00:00 | 00:00:00 | 00:00:00 | |
| ARGUS2 | 2026-09-04 11:34:27 | 27.74921 | -82.38504 | 32° | 33km/h | 4871m | 4.9m/s | 0.3°C | 0% | 0hPa | 0V | 00:00:00 | 00:00:00 | 00:00:00 | |
| ARGUS2 | 2026-09-04 11:34:06 | 27.74812 | -82.38544 | 33° | 33km/h | 4751m | 4.7m/s | 1.0°C | 0% | 0hPa | 0V | 00:00:00 | 00:00:00 | 00:00:00 | |
| ARGUS2 | 2026-09-04 11:33:45 | 27.74673 | -82.38582 | 32° | 11km/h | 4640m | 5.5m/s | 1.8°C | 0% | 0hPa | 0V | 00:00:00 | 00:00:00 | 00:00:00 | |
| ARGUS2 | 2026-09-04 11:33:24 | 27.74542 | -82.38660 | 43° | 29km/h | 4530m | 4.6m/s | 2.6°C | 0% | 0hPa | 0V | 00:00:00 | 00:00:00 | 00:00:00 | |
| ARGUS2 | 2026-09-04 11:33:03 | 27.74420 | -82.38714 | 54° | 7km/h | 4414m | 6.9m/s | 3.4°C | 0% | 0hPa | 0V | 00:00:00 | 00:00:00 | 00:00:00 | |
| ARGUS2 | 2026-09-04 11:32:40 | 27.74298 | -82.38807 | 61° | 7km/h | 4279m | 4.9m/s | 4.6°C | 0% | 0hPa | 0V | 00:00:00 | 00:00:00 | 00:00:00 | |
| ARGUS2 | 2026-09-04 11:32:20 | 27.74179 | -82.38850 | 44° | 11km/h | 4162m | 4.6m/s | 5.2°C | 0% | 0hPa | 0V | 00:00:00 | 00:00:00 | 00:00:00 | |
| ARGUS2 | 2026-09-04 11:31:57 | 27.74054 | -82.38877 | 361° | 29km/h | 4040m | 6.1m/s | 5.9°C | 0% | 0hPa | 0V | 00:00:00 | 00:00:00 | 00:00:00 | |
| ARGUS2 | 2026-09-04 11:31:37 | 27.73972 | -82.38868 | 338° | 35km/h | 3915m | 4.7m/s | 6.5°C | 0% | 0hPa | 0V | 00:00:00 | 00:00:00 | 00:00:00 | |
| ARGUS2 | 2026-09-04 11:31:16 | 27.73877 | -82.38862 | 319° | 9km/h | 3816m | 5.7m/s | 7.0°C | 0% | 0hPa | 0V | 00:00:00 | 00:00:00 | 00:00:00 | |
| ARGUS2 | 2026-09-04 11:30:56 | 27.73767 | -82.38865 | 35° | 24km/h | 3698m | 4.2m/s | 7.9°C | 0% | 0hPa | 0V | 00:00:00 | 00:00:00 | 00:00:00 | |
| ARGUS2 | 2026-09-04 11:28:16 | 27.73030 | -82.39081 | 35° | 29km/h | 2793m | 5.4m/s | 11.1°C | 0% | 0hPa | 0V | 00:00:00 | 00:00:00 | 00:00:00 |